<?xml version="1.0" encoding="UTF-8" standalone="no" ?>
<gpx xmlns="http://www.topografix.com/GPX/1/1" xmlns:xsi="http://www.w3.org/2001/XMLSchema-instance" xsi:schemaLocation="http://www.topografix.com/GPX/1/1 http://www.topografix.com/GPX/1/1/gpx.xsd" version="1.1" creator="VisuGPX - https://www.visugpx.com">
  <metadata>
    <name>Sortie de noel</name>
    <desc><![CDATA[montagne russe]]></desc>
  </metadata>
  <trk>
    <name><![CDATA[Sortie de noel_1]]></name>
    <trkseg>
      <trkpt lat="45.2857" lon="1.97085">
        <ele>251</ele>
        <time>2011-12-23T13:11:11.000Z</time>
      </trkpt>
      <trkpt lat="45.2852" lon="1.97055">
        <ele>309</ele>
        <time>2011-12-23T13:11:12.000Z</time>
      </trkpt>
      <trkpt lat="45.2847" lon="1.97035">
        <ele>355</ele>
        <time>2011-12-23T13:11:13.000Z</time>
      </trkpt>
      <trkpt lat="45.2839" lon="1.97003">
        <ele>438</ele>
        <time>2011-12-23T13:11:15.000Z</time>
      </trkpt>
      <trkpt lat="45.2833" lon="1.96981">
        <ele>508</ele>
        <time>2011-12-23T13:11:16.000Z</time>
      </trkpt>
      <trkpt lat="45.2828" lon="1.96969">
        <ele>579</ele>
        <time>2011-12-23T13:11:18.000Z</time>
      </trkpt>
      <trkpt lat="45.2833" lon="1.96974">
        <ele>602</ele>
        <time>2011-12-23T13:13:04.000Z</time>
      </trkpt>
      <trkpt lat="45.2833" lon="1.97045">
        <ele>613</ele>
        <time>2011-12-23T13:13:20.000Z</time>
      </trkpt>
      <trkpt lat="45.283" lon="1.97099">
        <ele>617</ele>
        <time>2011-12-23T13:13:29.000Z</time>
      </trkpt>
      <trkpt lat="45.2828" lon="1.97159">
        <ele>617</ele>
        <time>2011-12-23T13:13:38.000Z</time>
      </trkpt>
      <trkpt lat="45.2825" lon="1.9722">
        <ele>618</ele>
        <time>2011-12-23T13:13:48.000Z</time>
      </trkpt>
      <trkpt lat="45.2822" lon="1.97282">
        <ele>616</ele>
        <time>2011-12-23T13:13:57.000Z</time>
      </trkpt>
      <trkpt lat="45.282" lon="1.97346">
        <ele>614</ele>
        <time>2011-12-23T13:14:06.000Z</time>
      </trkpt>
      <trkpt lat="45.2819" lon="1.97411">
        <ele>627</ele>
        <time>2011-12-23T13:14:18.000Z</time>
      </trkpt>
      <trkpt lat="45.2818" lon="1.97475">
        <ele>632</ele>
        <time>2011-12-23T13:14:28.000Z</time>
      </trkpt>
      <trkpt lat="45.2815" lon="1.97531">
        <ele>629</ele>
        <time>2011-12-23T13:14:36.000Z</time>
      </trkpt>
      <trkpt lat="45.2812" lon="1.97592">
        <ele>626</ele>
        <time>2011-12-23T13:14:44.000Z</time>
      </trkpt>
      <trkpt lat="45.2808" lon="1.97639">
        <ele>626</ele>
        <time>2011-12-23T13:14:53.000Z</time>
      </trkpt>
      <trkpt lat="45.2804" lon="1.97657">
        <ele>627</ele>
        <time>2011-12-23T13:15:00.000Z</time>
      </trkpt>
      <trkpt lat="45.2798" lon="1.97661">
        <ele>619</ele>
        <time>2011-12-23T13:15:08.000Z</time>
      </trkpt>
      <trkpt lat="45.2795" lon="1.97706">
        <ele>630</ele>
        <time>2011-12-23T13:15:29.000Z</time>
      </trkpt>
      <trkpt lat="45.2792" lon="1.97757">
        <ele>636</ele>
        <time>2011-12-23T13:15:36.000Z</time>
      </trkpt>
      <trkpt lat="45.2789" lon="1.97809">
        <ele>635</ele>
        <time>2011-12-23T13:15:42.000Z</time>
      </trkpt>
      <trkpt lat="45.2786" lon="1.9786">
        <ele>628</ele>
        <time>2011-12-23T13:15:49.000Z</time>
      </trkpt>
      <trkpt lat="45.2782" lon="1.97896">
        <ele>619</ele>
        <time>2011-12-23T13:16:02.000Z</time>
      </trkpt>
      <trkpt lat="45.2777" lon="1.97921">
        <ele>618</ele>
        <time>2011-12-23T13:16:11.000Z</time>
      </trkpt>
      <trkpt lat="45.2772" lon="1.97941">
        <ele>617</ele>
        <time>2011-12-23T13:16:17.000Z</time>
      </trkpt>
      <trkpt lat="45.2768" lon="1.97956">
        <ele>614</ele>
        <time>2011-12-23T13:16:25.000Z</time>
      </trkpt>
      <trkpt lat="45.2763" lon="1.9797">
        <ele>614</ele>
        <time>2011-12-23T13:16:34.000Z</time>
      </trkpt>
      <trkpt lat="45.2758" lon="1.97994">
        <ele>618</ele>
        <time>2011-12-23T13:16:46.000Z</time>
      </trkpt>
      <trkpt lat="45.2754" lon="1.98017">
        <ele>617</ele>
        <time>2011-12-23T13:16:53.000Z</time>
      </trkpt>
      <trkpt lat="45.2749" lon="1.98036">
        <ele>614</ele>
        <time>2011-12-23T13:17:00.000Z</time>
      </trkpt>
      <trkpt lat="45.2745" lon="1.98061">
        <ele>611</ele>
        <time>2011-12-23T13:17:09.000Z</time>
      </trkpt>
      <trkpt lat="45.274" lon="1.98084">
        <ele>612</ele>
        <time>2011-12-23T13:17:20.000Z</time>
      </trkpt>
      <trkpt lat="45.2736" lon="1.98053">
        <ele>622</ele>
        <time>2011-12-23T13:17:32.000Z</time>
      </trkpt>
      <trkpt lat="45.2731" lon="1.98022">
        <ele>629</ele>
        <time>2011-12-23T13:17:44.000Z</time>
      </trkpt>
      <trkpt lat="45.2727" lon="1.97995">
        <ele>629</ele>
        <time>2011-12-23T13:17:54.000Z</time>
      </trkpt>
      <trkpt lat="45.2722" lon="1.97971">
        <ele>636</ele>
        <time>2011-12-23T13:18:04.000Z</time>
      </trkpt>
      <trkpt lat="45.2717" lon="1.97962">
        <ele>636</ele>
        <time>2011-12-23T13:18:14.000Z</time>
      </trkpt>
      <trkpt lat="45.2711" lon="1.97929">
        <ele>652</ele>
        <time>2011-12-23T13:18:24.000Z</time>
      </trkpt>
      <trkpt lat="45.2705" lon="1.97911">
        <ele>643</ele>
        <time>2011-12-23T13:18:30.000Z</time>
      </trkpt>
      <trkpt lat="45.27" lon="1.97911">
        <ele>628</ele>
        <time>2011-12-23T13:18:34.000Z</time>
      </trkpt>
      <trkpt lat="45.2696" lon="1.97889">
        <ele>626</ele>
        <time>2011-12-23T13:18:44.000Z</time>
      </trkpt>
      <trkpt lat="45.2695" lon="1.97821">
        <ele>622</ele>
        <time>2011-12-23T13:18:50.000Z</time>
      </trkpt>
      <trkpt lat="45.2691" lon="1.97782">
        <ele>614</ele>
        <time>2011-12-23T13:19:04.000Z</time>
      </trkpt>
      <trkpt lat="45.2686" lon="1.97772">
        <ele>627</ele>
        <time>2011-12-23T13:19:16.000Z</time>
      </trkpt>
      <trkpt lat="45.2681" lon="1.97764">
        <ele>631</ele>
        <time>2011-12-23T13:19:25.000Z</time>
      </trkpt>
      <trkpt lat="45.2676" lon="1.97761">
        <ele>634</ele>
        <time>2011-12-23T13:19:34.000Z</time>
      </trkpt>
      <trkpt lat="45.2672" lon="1.97773">
        <ele>625</ele>
        <time>2011-12-23T13:19:41.000Z</time>
      </trkpt>
      <trkpt lat="45.2669" lon="1.97823">
        <ele>623</ele>
        <time>2011-12-23T13:19:49.000Z</time>
      </trkpt>
      <trkpt lat="45.2666" lon="1.97891">
        <ele>628</ele>
        <time>2011-12-23T13:20:03.000Z</time>
      </trkpt>
      <trkpt lat="45.2665" lon="1.97956">
        <ele>631</ele>
        <time>2011-12-23T13:20:11.000Z</time>
      </trkpt>
      <trkpt lat="45.2665" lon="1.98037">
        <ele>634</ele>
        <time>2011-12-23T13:20:18.000Z</time>
      </trkpt>
      <trkpt lat="45.2662" lon="1.98098">
        <ele>635</ele>
        <time>2011-12-23T13:20:23.000Z</time>
      </trkpt>
      <trkpt lat="45.2661" lon="1.98166">
        <ele>634</ele>
        <time>2011-12-23T13:20:31.000Z</time>
      </trkpt>
      <trkpt lat="45.266" lon="1.98238">
        <ele>636</ele>
        <time>2011-12-23T13:20:39.000Z</time>
      </trkpt>
      <trkpt lat="45.266" lon="1.98304">
        <ele>636</ele>
        <time>2011-12-23T13:20:46.000Z</time>
      </trkpt>
      <trkpt lat="45.2658" lon="1.98363">
        <ele>638</ele>
        <time>2011-12-23T13:20:55.000Z</time>
      </trkpt>
      <trkpt lat="45.2657" lon="1.98434">
        <ele>638</ele>
        <time>2011-12-23T13:21:04.000Z</time>
      </trkpt>
      <trkpt lat="45.2656" lon="1.98497">
        <ele>633</ele>
        <time>2011-12-23T13:21:11.000Z</time>
      </trkpt>
      <trkpt lat="45.2657" lon="1.98575">
        <ele>627</ele>
        <time>2011-12-23T13:21:17.000Z</time>
      </trkpt>
      <trkpt lat="45.2654" lon="1.98635">
        <ele>631</ele>
        <time>2011-12-23T13:21:26.000Z</time>
      </trkpt>
      <trkpt lat="45.2649" lon="1.98654">
        <ele>629</ele>
        <time>2011-12-23T13:21:31.000Z</time>
      </trkpt>
      <trkpt lat="45.2644" lon="1.98674">
        <ele>625</ele>
        <time>2011-12-23T13:21:35.000Z</time>
      </trkpt>
      <trkpt lat="45.264" lon="1.98711">
        <ele>625</ele>
        <time>2011-12-23T13:21:42.000Z</time>
      </trkpt>
      <trkpt lat="45.2635" lon="1.98752">
        <ele>620</ele>
        <time>2011-12-23T13:21:47.000Z</time>
      </trkpt>
      <trkpt lat="45.2632" lon="1.98806">
        <ele>617</ele>
        <time>2011-12-23T13:21:52.000Z</time>
      </trkpt>
      <trkpt lat="45.263" lon="1.9887">
        <ele>613</ele>
        <time>2011-12-23T13:21:59.000Z</time>
      </trkpt>
      <trkpt lat="45.2627" lon="1.98925">
        <ele>610</ele>
        <time>2011-12-23T13:22:08.000Z</time>
      </trkpt>
      <trkpt lat="45.2624" lon="1.98978">
        <ele>611</ele>
        <time>2011-12-23T13:22:16.000Z</time>
      </trkpt>
      <trkpt lat="45.262" lon="1.99022">
        <ele>608</ele>
        <time>2011-12-23T13:22:23.000Z</time>
      </trkpt>
      <trkpt lat="45.2617" lon="1.99066">
        <ele>603</ele>
        <time>2011-12-23T13:22:31.000Z</time>
      </trkpt>
      <trkpt lat="45.2613" lon="1.99105">
        <ele>617</ele>
        <time>2011-12-23T13:22:43.000Z</time>
      </trkpt>
      <trkpt lat="45.2608" lon="1.99098">
        <ele>618</ele>
        <time>2011-12-23T13:22:48.000Z</time>
      </trkpt>
      <trkpt lat="45.2604" lon="1.99094">
        <ele>615</ele>
        <time>2011-12-23T13:22:54.000Z</time>
      </trkpt>
      <trkpt lat="45.2598" lon="1.99111">
        <ele>613</ele>
        <time>2011-12-23T13:23:02.000Z</time>
      </trkpt>
      <trkpt lat="45.2593" lon="1.99122">
        <ele>615</ele>
        <time>2011-12-23T13:23:10.000Z</time>
      </trkpt>
      <trkpt lat="45.2588" lon="1.9912">
        <ele>615</ele>
        <time>2011-12-23T13:23:18.000Z</time>
      </trkpt>
      <trkpt lat="45.2582" lon="1.99114">
        <ele>613</ele>
        <time>2011-12-23T13:23:26.000Z</time>
      </trkpt>
      <trkpt lat="45.2577" lon="1.99105">
        <ele>603</ele>
        <time>2011-12-23T13:23:31.000Z</time>
      </trkpt>
      <trkpt lat="45.2573" lon="1.99063">
        <ele>594</ele>
        <time>2011-12-23T13:23:38.000Z</time>
      </trkpt>
      <trkpt lat="45.257" lon="1.99014">
        <ele>598</ele>
        <time>2011-12-23T13:23:48.000Z</time>
      </trkpt>
      <trkpt lat="45.2566" lon="1.98967">
        <ele>596</ele>
        <time>2011-12-23T13:23:53.000Z</time>
      </trkpt>
      <trkpt lat="45.2561" lon="1.98945">
        <ele>594</ele>
        <time>2011-12-23T13:24:00.000Z</time>
      </trkpt>
      <trkpt lat="45.2558" lon="1.98893">
        <ele>594</ele>
        <time>2011-12-23T13:24:06.000Z</time>
      </trkpt>
      <trkpt lat="45.2558" lon="1.98826">
        <ele>593</ele>
        <time>2011-12-23T13:24:11.000Z</time>
      </trkpt>
      <trkpt lat="45.2557" lon="1.98759">
        <ele>592</ele>
        <time>2011-12-23T13:24:15.000Z</time>
      </trkpt>
      <trkpt lat="45.2552" lon="1.98732">
        <ele>585</ele>
        <time>2011-12-23T13:24:23.000Z</time>
      </trkpt>
      <trkpt lat="45.2548" lon="1.98721">
        <ele>574</ele>
        <time>2011-12-23T13:24:47.000Z</time>
      </trkpt>
      <trkpt lat="45.2544" lon="1.98768">
        <ele>586</ele>
        <time>2011-12-23T13:25:07.000Z</time>
      </trkpt>
      <trkpt lat="45.2539" lon="1.98791">
        <ele>592</ele>
        <time>2011-12-23T13:25:21.000Z</time>
      </trkpt>
      <trkpt lat="45.2536" lon="1.98844">
        <ele>618</ele>
        <time>2011-12-23T13:25:40.000Z</time>
      </trkpt>
      <trkpt lat="45.2532" lon="1.98873">
        <ele>627</ele>
        <time>2011-12-23T13:25:49.000Z</time>
      </trkpt>
      <trkpt lat="45.2525" lon="1.98912">
        <ele>629</ele>
        <time>2011-12-23T13:25:55.000Z</time>
      </trkpt>
      <trkpt lat="45.2519" lon="1.98941">
        <ele>618</ele>
        <time>2011-12-23T13:25:59.000Z</time>
      </trkpt>
      <trkpt lat="45.2513" lon="1.9894">
        <ele>596</ele>
        <time>2011-12-23T13:26:03.000Z</time>
      </trkpt>
      <trkpt lat="45.2507" lon="1.98965">
        <ele>584</ele>
        <time>2011-12-23T13:26:07.000Z</time>
      </trkpt>
      <trkpt lat="45.2503" lon="1.98978">
        <ele>580</ele>
        <time>2011-12-23T13:26:12.000Z</time>
      </trkpt>
      <trkpt lat="45.2499" lon="1.99019">
        <ele>576</ele>
        <time>2011-12-23T13:26:21.000Z</time>
      </trkpt>
      <trkpt lat="45.2496" lon="1.99086">
        <ele>576</ele>
        <time>2011-12-23T13:26:31.000Z</time>
      </trkpt>
      <trkpt lat="45.2495" lon="1.99162">
        <ele>579</ele>
        <time>2011-12-23T13:26:39.000Z</time>
      </trkpt>
      <trkpt lat="45.2493" lon="1.99226">
        <ele>582</ele>
        <time>2011-12-23T13:26:47.000Z</time>
      </trkpt>
      <trkpt lat="45.2492" lon="1.99288">
        <ele>585</ele>
        <time>2011-12-23T13:26:57.000Z</time>
      </trkpt>
      <trkpt lat="45.2492" lon="1.99359">
        <ele>587</ele>
        <time>2011-12-23T13:27:05.000Z</time>
      </trkpt>
      <trkpt lat="45.2489" lon="1.99414">
        <ele>584</ele>
        <time>2011-12-23T13:27:12.000Z</time>
      </trkpt>
      <trkpt lat="45.2486" lon="1.99464">
        <ele>585</ele>
        <time>2011-12-23T13:27:20.000Z</time>
      </trkpt>
      <trkpt lat="45.2482" lon="1.99509">
        <ele>575</ele>
        <time>2011-12-23T13:27:25.000Z</time>
      </trkpt>
      <trkpt lat="45.2479" lon="1.99574">
        <ele>568</ele>
        <time>2011-12-23T13:27:35.000Z</time>
      </trkpt>
      <trkpt lat="45.2479" lon="1.99666">
        <ele>563</ele>
        <time>2011-12-23T13:27:43.000Z</time>
      </trkpt>
      <trkpt lat="45.2475" lon="1.9971">
        <ele>556</ele>
        <time>2011-12-23T13:27:51.000Z</time>
      </trkpt>
      <trkpt lat="45.2471" lon="1.99727">
        <ele>555</ele>
        <time>2011-12-23T13:28:00.000Z</time>
      </trkpt>
      <trkpt lat="45.2467" lon="1.99772">
        <ele>559</ele>
        <time>2011-12-23T13:28:21.000Z</time>
      </trkpt>
      <trkpt lat="45.2464" lon="1.99827">
        <ele>571</ele>
        <time>2011-12-23T13:28:41.000Z</time>
      </trkpt>
      <trkpt lat="45.2462" lon="1.99888">
        <ele>582</ele>
        <time>2011-12-23T13:28:58.000Z</time>
      </trkpt>
      <trkpt lat="45.2459" lon="1.99937">
        <ele>584</ele>
        <time>2011-12-23T13:29:16.000Z</time>
      </trkpt>
      <trkpt lat="45.2457" lon="1.99989">
        <ele>595</ele>
        <time>2011-12-23T13:29:33.000Z</time>
      </trkpt>
      <trkpt lat="45.2454" lon="2.00037">
        <ele>598</ele>
        <time>2011-12-23T13:29:52.000Z</time>
      </trkpt>
      <trkpt lat="45.245" lon="2.00075">
        <ele>604</ele>
        <time>2011-12-23T13:30:09.000Z</time>
      </trkpt>
      <trkpt lat="45.2446" lon="2.00116">
        <ele>604</ele>
        <time>2011-12-23T13:30:28.000Z</time>
      </trkpt>
      <trkpt lat="45.2445" lon="2.00179">
        <ele>606</ele>
        <time>2011-12-23T13:30:49.000Z</time>
      </trkpt>
      <trkpt lat="45.2444" lon="2.00243">
        <ele>611</ele>
        <time>2011-12-23T13:31:03.000Z</time>
      </trkpt>
      <trkpt lat="45.244" lon="2.00294">
        <ele>608</ele>
        <time>2011-12-23T13:31:14.000Z</time>
      </trkpt>
      <trkpt lat="45.2437" lon="2.00335">
        <ele>605</ele>
        <time>2011-12-23T13:31:26.000Z</time>
      </trkpt>
      <trkpt lat="45.2435" lon="2.00392">
        <ele>608</ele>
        <time>2011-12-23T13:31:41.000Z</time>
      </trkpt>
      <trkpt lat="45.2433" lon="2.00461">
        <ele>622</ele>
        <time>2011-12-23T13:31:54.000Z</time>
      </trkpt>
      <trkpt lat="45.243" lon="2.0052">
        <ele>622</ele>
        <time>2011-12-23T13:32:04.000Z</time>
      </trkpt>
      <trkpt lat="45.2427" lon="2.0058">
        <ele>621</ele>
        <time>2011-12-23T13:32:14.000Z</time>
      </trkpt>
      <trkpt lat="45.2424" lon="2.00626">
        <ele>614</ele>
        <time>2011-12-23T13:32:22.000Z</time>
      </trkpt>
      <trkpt lat="45.242" lon="2.0066">
        <ele>618</ele>
        <time>2011-12-23T13:32:32.000Z</time>
      </trkpt>
      <trkpt lat="45.2415" lon="2.00655">
        <ele>623</ele>
        <time>2011-12-23T13:32:42.000Z</time>
      </trkpt>
      <trkpt lat="45.2411" lon="2.0064">
        <ele>630</ele>
        <time>2011-12-23T13:32:54.000Z</time>
      </trkpt>
      <trkpt lat="45.2405" lon="2.00624">
        <ele>624</ele>
        <time>2011-12-23T13:33:03.000Z</time>
      </trkpt>
      <trkpt lat="45.2401" lon="2.00608">
        <ele>608</ele>
        <time>2011-12-23T13:33:10.000Z</time>
      </trkpt>
      <trkpt lat="45.2397" lon="2.00572">
        <ele>607</ele>
        <time>2011-12-23T13:33:18.000Z</time>
      </trkpt>
      <trkpt lat="45.2394" lon="2.00523">
        <ele>607</ele>
        <time>2011-12-23T13:33:24.000Z</time>
      </trkpt>
      <trkpt lat="45.239" lon="2.0047">
        <ele>605</ele>
        <time>2011-12-23T13:33:31.000Z</time>
      </trkpt>
      <trkpt lat="45.2388" lon="2.00409">
        <ele>608</ele>
        <time>2011-12-23T13:33:39.000Z</time>
      </trkpt>
      <trkpt lat="45.2385" lon="2.00364">
        <ele>613</ele>
        <time>2011-12-23T13:33:47.000Z</time>
      </trkpt>
      <trkpt lat="45.2381" lon="2.00327">
        <ele>612</ele>
        <time>2011-12-23T13:33:55.000Z</time>
      </trkpt>
      <trkpt lat="45.2377" lon="2.00282">
        <ele>605</ele>
        <time>2011-12-23T13:34:06.000Z</time>
      </trkpt>
      <trkpt lat="45.2376" lon="2.00345">
        <ele>610</ele>
        <time>2011-12-23T13:34:20.000Z</time>
      </trkpt>
      <trkpt lat="45.2374" lon="2.00404">
        <ele>612</ele>
        <time>2011-12-23T13:34:28.000Z</time>
      </trkpt>
      <trkpt lat="45.2372" lon="2.00456">
        <ele>612</ele>
        <time>2011-12-23T13:34:37.000Z</time>
      </trkpt>
      <trkpt lat="45.2371" lon="2.00519">
        <ele>614</ele>
        <time>2011-12-23T13:34:46.000Z</time>
      </trkpt>
      <trkpt lat="45.237" lon="2.00587">
        <ele>614</ele>
        <time>2011-12-23T13:34:55.000Z</time>
      </trkpt>
      <trkpt lat="45.237" lon="2.00651">
        <ele>617</ele>
        <time>2011-12-23T13:35:03.000Z</time>
      </trkpt>
      <trkpt lat="45.2369" lon="2.00716">
        <ele>618</ele>
        <time>2011-12-23T13:35:12.000Z</time>
      </trkpt>
      <trkpt lat="45.2369" lon="2.0079">
        <ele>617</ele>
        <time>2011-12-23T13:35:22.000Z</time>
      </trkpt>
      <trkpt lat="45.237" lon="2.00853">
        <ele>616</ele>
        <time>2011-12-23T13:35:30.000Z</time>
      </trkpt>
      <trkpt lat="45.2369" lon="2.00923">
        <ele>628</ele>
        <time>2011-12-23T13:35:40.000Z</time>
      </trkpt>
      <trkpt lat="45.2366" lon="2.0098">
        <ele>635</ele>
        <time>2011-12-23T13:35:49.000Z</time>
      </trkpt>
      <trkpt lat="45.2364" lon="2.01049">
        <ele>634</ele>
        <time>2011-12-23T13:35:59.000Z</time>
      </trkpt>
      <trkpt lat="45.2363" lon="2.01117">
        <ele>636</ele>
        <time>2011-12-23T13:36:08.000Z</time>
      </trkpt>
      <trkpt lat="45.2362" lon="2.01185">
        <ele>633</ele>
        <time>2011-12-23T13:36:16.000Z</time>
      </trkpt>
      <trkpt lat="45.2361" lon="2.01257">
        <ele>646</ele>
        <time>2011-12-23T13:36:24.000Z</time>
      </trkpt>
      <trkpt lat="45.2361" lon="2.01338">
        <ele>641</ele>
        <time>2011-12-23T13:36:31.000Z</time>
      </trkpt>
      <trkpt lat="45.2362" lon="2.01409">
        <ele>633</ele>
        <time>2011-12-23T13:36:36.000Z</time>
      </trkpt>
      <trkpt lat="45.2362" lon="2.01475">
        <ele>631</ele>
        <time>2011-12-23T13:36:43.000Z</time>
      </trkpt>
      <trkpt lat="45.2359" lon="2.01541">
        <ele>629</ele>
        <time>2011-12-23T13:36:55.000Z</time>
      </trkpt>
      <trkpt lat="45.2358" lon="2.01605">
        <ele>630</ele>
        <time>2011-12-23T13:37:04.000Z</time>
      </trkpt>
      <trkpt lat="45.2357" lon="2.01667">
        <ele>637</ele>
        <time>2011-12-23T13:37:13.000Z</time>
      </trkpt>
      <trkpt lat="45.2356" lon="2.01739">
        <ele>644</ele>
        <time>2011-12-23T13:37:20.000Z</time>
      </trkpt>
      <trkpt lat="45.2356" lon="2.01807">
        <ele>645</ele>
        <time>2011-12-23T13:37:27.000Z</time>
      </trkpt>
      <trkpt lat="45.2354" lon="2.01872">
        <ele>627</ele>
        <time>2011-12-23T13:37:32.000Z</time>
      </trkpt>
      <trkpt lat="45.2355" lon="2.01937">
        <ele>613</ele>
        <time>2011-12-23T13:37:37.000Z</time>
      </trkpt>
      <trkpt lat="45.235" lon="2.0196">
        <ele>614</ele>
        <time>2011-12-23T13:37:44.000Z</time>
      </trkpt>
      <trkpt lat="45.2346" lon="2.01963">
        <ele>613</ele>
        <time>2011-12-23T13:37:51.000Z</time>
      </trkpt>
      <trkpt lat="45.2341" lon="2.01965">
        <ele>616</ele>
        <time>2011-12-23T13:38:00.000Z</time>
      </trkpt>
      <trkpt lat="45.2336" lon="2.01951">
        <ele>623</ele>
        <time>2011-12-23T13:38:08.000Z</time>
      </trkpt>
      <trkpt lat="45.2332" lon="2.01938">
        <ele>620</ele>
        <time>2011-12-23T13:38:14.000Z</time>
      </trkpt>
      <trkpt lat="45.2328" lon="2.01902">
        <ele>619</ele>
        <time>2011-12-23T13:38:24.000Z</time>
      </trkpt>
      <trkpt lat="45.2325" lon="2.01847">
        <ele>624</ele>
        <time>2011-12-23T13:38:33.000Z</time>
      </trkpt>
      <trkpt lat="45.2321" lon="2.01796">
        <ele>633</ele>
        <time>2011-12-23T13:38:41.000Z</time>
      </trkpt>
      <trkpt lat="45.2318" lon="2.01749">
        <ele>628</ele>
        <time>2011-12-23T13:38:48.000Z</time>
      </trkpt>
      <trkpt lat="45.2316" lon="2.01681">
        <ele>624</ele>
        <time>2011-12-23T13:38:56.000Z</time>
      </trkpt>
      <trkpt lat="45.2314" lon="2.01622">
        <ele>631</ele>
        <time>2011-12-23T13:39:07.000Z</time>
      </trkpt>
      <trkpt lat="45.2311" lon="2.01561">
        <ele>632</ele>
        <time>2011-12-23T13:39:18.000Z</time>
      </trkpt>
      <trkpt lat="45.2308" lon="2.0151">
        <ele>632</ele>
        <time>2011-12-23T13:39:28.000Z</time>
      </trkpt>
      <trkpt lat="45.2306" lon="2.01448">
        <ele>640</ele>
        <time>2011-12-23T13:39:40.000Z</time>
      </trkpt>
      <trkpt lat="45.2302" lon="2.01402">
        <ele>639</ele>
        <time>2011-12-23T13:39:50.000Z</time>
      </trkpt>
      <trkpt lat="45.2298" lon="2.01368">
        <ele>638</ele>
        <time>2011-12-23T13:39:58.000Z</time>
      </trkpt>
      <trkpt lat="45.2294" lon="2.0135">
        <ele>627</ele>
        <time>2011-12-23T13:40:03.000Z</time>
      </trkpt>
      <trkpt lat="45.2289" lon="2.01319">
        <ele>627</ele>
        <time>2011-12-23T13:40:10.000Z</time>
      </trkpt>
      <trkpt lat="45.2286" lon="2.01263">
        <ele>623</ele>
        <time>2011-12-23T13:40:16.000Z</time>
      </trkpt>
      <trkpt lat="45.2284" lon="2.01191">
        <ele>623</ele>
        <time>2011-12-23T13:40:23.000Z</time>
      </trkpt>
      <trkpt lat="45.2282" lon="2.01132">
        <ele>620</ele>
        <time>2011-12-23T13:40:30.000Z</time>
      </trkpt>
      <trkpt lat="45.2278" lon="2.01086">
        <ele>621</ele>
        <time>2011-12-23T13:40:40.000Z</time>
      </trkpt>
      <trkpt lat="45.2275" lon="2.01051">
        <ele>630</ele>
        <time>2011-12-23T13:40:51.000Z</time>
      </trkpt>
      <trkpt lat="45.2271" lon="2.01007">
        <ele>630</ele>
        <time>2011-12-23T13:40:59.000Z</time>
      </trkpt>
      <trkpt lat="45.2268" lon="2.0096">
        <ele>626</ele>
        <time>2011-12-23T13:41:06.000Z</time>
      </trkpt>
      <trkpt lat="45.2263" lon="2.00927">
        <ele>625</ele>
        <time>2011-12-23T13:41:15.000Z</time>
      </trkpt>
      <trkpt lat="45.2258" lon="2.00887">
        <ele>610</ele>
        <time>2011-12-23T13:41:22.000Z</time>
      </trkpt>
      <trkpt lat="45.2254" lon="2.00842">
        <ele>611</ele>
        <time>2011-12-23T13:41:30.000Z</time>
      </trkpt>
      <trkpt lat="45.2251" lon="2.00784">
        <ele>614</ele>
        <time>2011-12-23T13:41:36.000Z</time>
      </trkpt>
      <trkpt lat="45.225" lon="2.00718">
        <ele>613</ele>
        <time>2011-12-23T13:41:42.000Z</time>
      </trkpt>
      <trkpt lat="45.2248" lon="2.00658">
        <ele>613</ele>
        <time>2011-12-23T13:41:48.000Z</time>
      </trkpt>
      <trkpt lat="45.2245" lon="2.00598">
        <ele>609</ele>
        <time>2011-12-23T13:41:55.000Z</time>
      </trkpt>
      <trkpt lat="45.2242" lon="2.00545">
        <ele>605</ele>
        <time>2011-12-23T13:42:02.000Z</time>
      </trkpt>
      <trkpt lat="45.2238" lon="2.00511">
        <ele>596</ele>
        <time>2011-12-23T13:42:10.000Z</time>
      </trkpt>
      <trkpt lat="45.2233" lon="2.005">
        <ele>593</ele>
        <time>2011-12-23T13:42:19.000Z</time>
      </trkpt>
      <trkpt lat="45.2229" lon="2.00483">
        <ele>584</ele>
        <time>2011-12-23T13:42:26.000Z</time>
      </trkpt>
      <trkpt lat="45.223" lon="2.00414">
        <ele>578</ele>
        <time>2011-12-23T13:42:35.000Z</time>
      </trkpt>
      <trkpt lat="45.2234" lon="2.0036">
        <ele>580</ele>
        <time>2011-12-23T13:42:44.000Z</time>
      </trkpt>
      <trkpt lat="45.2237" lon="2.00311">
        <ele>581</ele>
        <time>2011-12-23T13:42:52.000Z</time>
      </trkpt>
      <trkpt lat="45.2241" lon="2.00275">
        <ele>584</ele>
        <time>2011-12-23T13:43:01.000Z</time>
      </trkpt>
      <trkpt lat="45.2246" lon="2.00255">
        <ele>588</ele>
        <time>2011-12-23T13:43:10.000Z</time>
      </trkpt>
      <trkpt lat="45.2251" lon="2.00245">
        <ele>592</ele>
        <time>2011-12-23T13:43:18.000Z</time>
      </trkpt>
      <trkpt lat="45.2256" lon="2.0023">
        <ele>601</ele>
        <time>2011-12-23T13:43:29.000Z</time>
      </trkpt>
      <trkpt lat="45.226" lon="2.00193">
        <ele>601</ele>
        <time>2011-12-23T13:43:38.000Z</time>
      </trkpt>
      <trkpt lat="45.2264" lon="2.00183">
        <ele>598</ele>
        <time>2011-12-23T13:43:46.000Z</time>
      </trkpt>
      <trkpt lat="45.227" lon="2.00187">
        <ele>592</ele>
        <time>2011-12-23T13:43:54.000Z</time>
      </trkpt>
      <trkpt lat="45.2274" lon="2.00154">
        <ele>585</ele>
        <time>2011-12-23T13:44:02.000Z</time>
      </trkpt>
      <trkpt lat="45.2277" lon="2.00106">
        <ele>582</ele>
        <time>2011-12-23T13:44:10.000Z</time>
      </trkpt>
      <trkpt lat="45.2278" lon="2.00041">
        <ele>578</ele>
        <time>2011-12-23T13:44:18.000Z</time>
      </trkpt>
      <trkpt lat="45.2278" lon="1.99973">
        <ele>577</ele>
        <time>2011-12-23T13:44:26.000Z</time>
      </trkpt>
      <trkpt lat="45.2278" lon="1.99901">
        <ele>574</ele>
        <time>2011-12-23T13:44:35.000Z</time>
      </trkpt>
      <trkpt lat="45.2276" lon="1.99841">
        <ele>573</ele>
        <time>2011-12-23T13:44:41.000Z</time>
      </trkpt>
      <trkpt lat="45.2272" lon="1.99787">
        <ele>569</ele>
        <time>2011-12-23T13:44:47.000Z</time>
      </trkpt>
      <trkpt lat="45.2269" lon="1.9974">
        <ele>567</ele>
        <time>2011-12-23T13:44:53.000Z</time>
      </trkpt>
      <trkpt lat="45.2264" lon="1.99702">
        <ele>564</ele>
        <time>2011-12-23T13:44:59.000Z</time>
      </trkpt>
      <trkpt lat="45.226" lon="1.99672">
        <ele>563</ele>
        <time>2011-12-23T13:45:04.000Z</time>
      </trkpt>
      <trkpt lat="45.2257" lon="1.99604">
        <ele>556</ele>
        <time>2011-12-23T13:45:10.000Z</time>
      </trkpt>
      <trkpt lat="45.2259" lon="1.99536">
        <ele>553</ele>
        <time>2011-12-23T13:45:14.000Z</time>
      </trkpt>
      <trkpt lat="45.2263" lon="1.99473">
        <ele>554</ele>
        <time>2011-12-23T13:45:19.000Z</time>
      </trkpt>
      <trkpt lat="45.2265" lon="1.99417">
        <ele>552</ele>
        <time>2011-12-23T13:45:23.000Z</time>
      </trkpt>
      <trkpt lat="45.2269" lon="1.99358">
        <ele>550</ele>
        <time>2011-12-23T13:45:28.000Z</time>
      </trkpt>
      <trkpt lat="45.2272" lon="1.99288">
        <ele>549</ele>
        <time>2011-12-23T13:45:34.000Z</time>
      </trkpt>
      <trkpt lat="45.2273" lon="1.99223">
        <ele>549</ele>
        <time>2011-12-23T13:45:39.000Z</time>
      </trkpt>
      <trkpt lat="45.2274" lon="1.9915">
        <ele>549</ele>
        <time>2011-12-23T13:45:43.000Z</time>
      </trkpt>
      <trkpt lat="45.2275" lon="1.9907">
        <ele>547</ele>
        <time>2011-12-23T13:45:48.000Z</time>
      </trkpt>
      <trkpt lat="45.2276" lon="1.98987">
        <ele>542</ele>
        <time>2011-12-23T13:45:54.000Z</time>
      </trkpt>
      <trkpt lat="45.2278" lon="1.98926">
        <ele>539</ele>
        <time>2011-12-23T13:45:59.000Z</time>
      </trkpt>
      <trkpt lat="45.2281" lon="1.98868">
        <ele>536</ele>
        <time>2011-12-23T13:46:04.000Z</time>
      </trkpt>
      <trkpt lat="45.2282" lon="1.98799">
        <ele>534</ele>
        <time>2011-12-23T13:46:10.000Z</time>
      </trkpt>
      <trkpt lat="45.2285" lon="1.98737">
        <ele>527</ele>
        <time>2011-12-23T13:46:16.000Z</time>
      </trkpt>
      <trkpt lat="45.2289" lon="1.98755">
        <ele>522</ele>
        <time>2011-12-23T13:46:22.000Z</time>
      </trkpt>
      <trkpt lat="45.2294" lon="1.98774">
        <ele>521</ele>
        <time>2011-12-23T13:46:27.000Z</time>
      </trkpt>
      <trkpt lat="45.23" lon="1.98779">
        <ele>518</ele>
        <time>2011-12-23T13:46:34.000Z</time>
      </trkpt>
      <trkpt lat="45.2305" lon="1.98769">
        <ele>517</ele>
        <time>2011-12-23T13:46:39.000Z</time>
      </trkpt>
      <trkpt lat="45.231" lon="1.98727">
        <ele>513</ele>
        <time>2011-12-23T13:46:46.000Z</time>
      </trkpt>
      <trkpt lat="45.2298" lon="1.98745">
        <ele>512</ele>
        <time>2011-12-23T13:47:36.000Z</time>
      </trkpt>
      <trkpt lat="45.2294" lon="1.98663">
        <ele>512</ele>
        <time>2011-12-23T13:48:03.000Z</time>
      </trkpt>
      <trkpt lat="45.2288" lon="1.98511">
        <ele>489</ele>
        <time>2011-12-23T13:48:32.000Z</time>
      </trkpt>
      <trkpt lat="45.2125" lon="1.96776">
        <ele>515</ele>
        <time>2011-12-23T14:00:48.000Z</time>
      </trkpt>
      <trkpt lat="45.2115" lon="1.96665">
        <ele>552</ele>
        <time>2011-12-23T14:01:20.000Z</time>
      </trkpt>
      <trkpt lat="45.2069" lon="1.9653">
        <ele>530</ele>
        <time>2011-12-23T14:02:00.000Z</time>
      </trkpt>
      <trkpt lat="45.2063" lon="1.96613">
        <ele>513</ele>
        <time>2011-12-23T14:02:02.000Z</time>
      </trkpt>
      <trkpt lat="45.2057" lon="1.96617">
        <ele>518</ele>
        <time>2011-12-23T14:02:13.000Z</time>
      </trkpt>
      <trkpt lat="45.2053" lon="1.96584">
        <ele>517</ele>
        <time>2011-12-23T14:02:22.000Z</time>
      </trkpt>
      <trkpt lat="45.205" lon="1.9653">
        <ele>519</ele>
        <time>2011-12-23T14:02:33.000Z</time>
      </trkpt>
      <trkpt lat="45.2049" lon="1.96462">
        <ele>521</ele>
        <time>2011-12-23T14:02:45.000Z</time>
      </trkpt>
      <trkpt lat="45.2049" lon="1.96395">
        <ele>523</ele>
        <time>2011-12-23T14:02:56.000Z</time>
      </trkpt>
      <trkpt lat="45.2048" lon="1.96327">
        <ele>519</ele>
        <time>2011-12-23T14:06:28.000Z</time>
      </trkpt>
      <trkpt lat="45.2048" lon="1.96256">
        <ele>519</ele>
        <time>2011-12-23T14:06:37.000Z</time>
      </trkpt>
      <trkpt lat="45.2048" lon="1.96186">
        <ele>522</ele>
        <time>2011-12-23T14:06:45.000Z</time>
      </trkpt>
      <trkpt lat="45.2045" lon="1.96148">
        <ele>530</ele>
        <time>2011-12-23T14:07:02.000Z</time>
      </trkpt>
      <trkpt lat="45.2039" lon="1.96138">
        <ele>526</ele>
        <time>2011-12-23T14:07:09.000Z</time>
      </trkpt>
      <trkpt lat="45.2035" lon="1.96161">
        <ele>528</ele>
        <time>2011-12-23T14:07:17.000Z</time>
      </trkpt>
      <trkpt lat="45.2032" lon="1.96221">
        <ele>539</ele>
        <time>2011-12-23T14:07:49.000Z</time>
      </trkpt>
      <trkpt lat="45.2029" lon="1.96277">
        <ele>547</ele>
        <time>2011-12-23T14:08:00.000Z</time>
      </trkpt>
      <trkpt lat="45.2028" lon="1.96337">
        <ele>546</ele>
        <time>2011-12-23T14:08:08.000Z</time>
      </trkpt>
      <trkpt lat="45.2024" lon="1.96382">
        <ele>544</ele>
        <time>2011-12-23T14:08:17.000Z</time>
      </trkpt>
      <trkpt lat="45.2019" lon="1.96404">
        <ele>538</ele>
        <time>2011-12-23T14:08:25.000Z</time>
      </trkpt>
      <trkpt lat="45.2014" lon="1.96402">
        <ele>525</ele>
        <time>2011-12-23T14:08:33.000Z</time>
      </trkpt>
      <trkpt lat="45.2009" lon="1.96377">
        <ele>522</ele>
        <time>2011-12-23T14:08:41.000Z</time>
      </trkpt>
      <trkpt lat="45.2006" lon="1.96326">
        <ele>513</ele>
        <time>2011-12-23T14:08:50.000Z</time>
      </trkpt>
      <trkpt lat="45.2001" lon="1.96348">
        <ele>516</ele>
        <time>2011-12-23T14:08:59.000Z</time>
      </trkpt>
      <trkpt lat="45.1998" lon="1.9639">
        <ele>518</ele>
        <time>2011-12-23T14:09:07.000Z</time>
      </trkpt>
      <trkpt lat="45.1996" lon="1.9647">
        <ele>521</ele>
        <time>2011-12-23T14:09:17.000Z</time>
      </trkpt>
      <trkpt lat="45.1996" lon="1.9655">
        <ele>523</ele>
        <time>2011-12-23T14:09:25.000Z</time>
      </trkpt>
      <trkpt lat="45.1994" lon="1.96604">
        <ele>523</ele>
        <time>2011-12-23T14:09:33.000Z</time>
      </trkpt>
      <trkpt lat="45.199" lon="1.96646">
        <ele>524</ele>
        <time>2011-12-23T14:09:37.000Z</time>
      </trkpt>
      <trkpt lat="45.1985" lon="1.96685">
        <ele>521</ele>
        <time>2011-12-23T14:09:41.000Z</time>
      </trkpt>
      <trkpt lat="45.198" lon="1.96714">
        <ele>511</ele>
        <time>2011-12-23T14:09:46.000Z</time>
      </trkpt>
      <trkpt lat="45.1975" lon="1.96751">
        <ele>511</ele>
        <time>2011-12-23T14:09:53.000Z</time>
      </trkpt>
      <trkpt lat="45.1976" lon="1.96824">
        <ele>514</ele>
        <time>2011-12-23T14:09:59.000Z</time>
      </trkpt>
      <trkpt lat="45.1977" lon="1.96889">
        <ele>513</ele>
        <time>2011-12-23T14:10:03.000Z</time>
      </trkpt>
      <trkpt lat="45.1973" lon="1.96929">
        <ele>501</ele>
        <time>2011-12-23T14:10:14.000Z</time>
      </trkpt>
      <trkpt lat="45.1968" lon="1.9694">
        <ele>497</ele>
        <time>2011-12-23T14:10:22.000Z</time>
      </trkpt>
      <trkpt lat="45.1963" lon="1.96942">
        <ele>489</ele>
        <time>2011-12-23T14:10:29.000Z</time>
      </trkpt>
      <trkpt lat="45.1958" lon="1.96932">
        <ele>488</ele>
        <time>2011-12-23T14:10:39.000Z</time>
      </trkpt>
      <trkpt lat="45.1954" lon="1.96933">
        <ele>486</ele>
        <time>2011-12-23T14:10:50.000Z</time>
      </trkpt>
      <trkpt lat="45.1949" lon="1.969">
        <ele>488</ele>
        <time>2011-12-23T14:11:01.000Z</time>
      </trkpt>
      <trkpt lat="45.1946" lon="1.96852">
        <ele>490</ele>
        <time>2011-12-23T14:11:11.000Z</time>
      </trkpt>
      <trkpt lat="45.1942" lon="1.96811">
        <ele>488</ele>
        <time>2011-12-23T14:11:25.000Z</time>
      </trkpt>
      <trkpt lat="45.1938" lon="1.96782">
        <ele>491</ele>
        <time>2011-12-23T14:11:41.000Z</time>
      </trkpt>
      <trkpt lat="45.1942" lon="1.96746">
        <ele>497</ele>
        <time>2011-12-23T14:12:01.000Z</time>
      </trkpt>
      <trkpt lat="45.1946" lon="1.96742">
        <ele>499</ele>
        <time>2011-12-23T14:12:15.000Z</time>
      </trkpt>
      <trkpt lat="45.1951" lon="1.9673">
        <ele>501</ele>
        <time>2011-12-23T14:12:33.000Z</time>
      </trkpt>
      <trkpt lat="45.1954" lon="1.96675">
        <ele>501</ele>
        <time>2011-12-23T14:12:50.000Z</time>
      </trkpt>
      <trkpt lat="45.1955" lon="1.9661">
        <ele>506</ele>
        <time>2011-12-23T14:13:07.000Z</time>
      </trkpt>
      <trkpt lat="45.1958" lon="1.96554">
        <ele>508</ele>
        <time>2011-12-23T14:13:22.000Z</time>
      </trkpt>
      <trkpt lat="45.1962" lon="1.9651">
        <ele>509</ele>
        <time>2011-12-23T14:13:32.000Z</time>
      </trkpt>
      <trkpt lat="45.1964" lon="1.9645">
        <ele>513</ele>
        <time>2011-12-23T14:13:47.000Z</time>
      </trkpt>
      <trkpt lat="45.1966" lon="1.96391">
        <ele>515</ele>
        <time>2011-12-23T14:13:59.000Z</time>
      </trkpt>
      <trkpt lat="45.1962" lon="1.96361">
        <ele>518</ele>
        <time>2011-12-23T14:14:19.000Z</time>
      </trkpt>
      <trkpt lat="45.1957" lon="1.9635">
        <ele>514</ele>
        <time>2011-12-23T14:14:26.000Z</time>
      </trkpt>
      <trkpt lat="45.1952" lon="1.96325">
        <ele>510</ele>
        <time>2011-12-23T14:14:30.000Z</time>
      </trkpt>
      <trkpt lat="45.195" lon="1.96265">
        <ele>510</ele>
        <time>2011-12-23T14:14:36.000Z</time>
      </trkpt>
      <trkpt lat="45.1946" lon="1.96228">
        <ele>507</ele>
        <time>2011-12-23T14:14:43.000Z</time>
      </trkpt>
      <trkpt lat="45.1941" lon="1.96245">
        <ele>507</ele>
        <time>2011-12-23T14:14:48.000Z</time>
      </trkpt>
      <trkpt lat="45.1936" lon="1.96288">
        <ele>509</ele>
        <time>2011-12-23T14:14:54.000Z</time>
      </trkpt>
      <trkpt lat="45.1932" lon="1.96345">
        <ele>511</ele>
        <time>2011-12-23T14:14:59.000Z</time>
      </trkpt>
      <trkpt lat="45.1929" lon="1.96406">
        <ele>510</ele>
        <time>2011-12-23T14:15:04.000Z</time>
      </trkpt>
      <trkpt lat="45.1925" lon="1.96442">
        <ele>509</ele>
        <time>2011-12-23T14:15:09.000Z</time>
      </trkpt>
      <trkpt lat="45.1924" lon="1.96515">
        <ele>508</ele>
        <time>2011-12-23T14:15:15.000Z</time>
      </trkpt>
      <trkpt lat="45.1923" lon="1.96579">
        <ele>506</ele>
        <time>2011-12-23T14:15:20.000Z</time>
      </trkpt>
      <trkpt lat="45.1922" lon="1.96643">
        <ele>505</ele>
        <time>2011-12-23T14:15:25.000Z</time>
      </trkpt>
      <trkpt lat="45.192" lon="1.96714">
        <ele>503</ele>
        <time>2011-12-23T14:15:31.000Z</time>
      </trkpt>
      <trkpt lat="45.1917" lon="1.96772">
        <ele>498</ele>
        <time>2011-12-23T14:15:37.000Z</time>
      </trkpt>
      <trkpt lat="45.1913" lon="1.96824">
        <ele>496</ele>
        <time>2011-12-23T14:15:45.000Z</time>
      </trkpt>
      <trkpt lat="45.1908" lon="1.96854">
        <ele>488</ele>
        <time>2011-12-23T14:15:49.000Z</time>
      </trkpt>
      <trkpt lat="45.1911" lon="1.96901">
        <ele>481</ele>
        <time>2011-12-23T14:16:07.000Z</time>
      </trkpt>
      <trkpt lat="45.1916" lon="1.9692">
        <ele>466</ele>
        <time>2011-12-23T14:16:13.000Z</time>
      </trkpt>
      <trkpt lat="45.1921" lon="1.9691">
        <ele>470</ele>
        <time>2011-12-23T14:16:23.000Z</time>
      </trkpt>
      <trkpt lat="45.1926" lon="1.96915">
        <ele>474</ele>
        <time>2011-12-23T14:16:31.000Z</time>
      </trkpt>
      <trkpt lat="45.1931" lon="1.96927">
        <ele>474</ele>
        <time>2011-12-23T14:16:37.000Z</time>
      </trkpt>
      <trkpt lat="45.1934" lon="1.9699">
        <ele>481</ele>
        <time>2011-12-23T14:16:47.000Z</time>
      </trkpt>
      <trkpt lat="45.1934" lon="1.97055">
        <ele>482</ele>
        <time>2011-12-23T14:16:55.000Z</time>
      </trkpt>
      <trkpt lat="45.1936" lon="1.97117">
        <ele>474</ele>
        <time>2011-12-23T14:17:03.000Z</time>
      </trkpt>
      <trkpt lat="45.1938" lon="1.97178">
        <ele>467</ele>
        <time>2011-12-23T14:17:08.000Z</time>
      </trkpt>
      <trkpt lat="45.194" lon="1.97241">
        <ele>466</ele>
        <time>2011-12-23T14:17:13.000Z</time>
      </trkpt>
      <trkpt lat="45.194" lon="1.97308">
        <ele>462</ele>
        <time>2011-12-23T14:17:20.000Z</time>
      </trkpt>
      <trkpt lat="45.1942" lon="1.97359">
        <ele>457</ele>
        <time>2011-12-23T14:17:30.000Z</time>
      </trkpt>
      <trkpt lat="45.1946" lon="1.9743">
        <ele>453</ele>
        <time>2011-12-23T14:17:40.000Z</time>
      </trkpt>
      <trkpt lat="45.1946" lon="1.97511">
        <ele>447</ele>
        <time>2011-12-23T14:17:48.000Z</time>
      </trkpt>
      <trkpt lat="45.1945" lon="1.97584">
        <ele>437</ele>
        <time>2011-12-23T14:17:56.000Z</time>
      </trkpt>
      <trkpt lat="45.1948" lon="1.97636">
        <ele>431</ele>
        <time>2011-12-23T14:18:09.000Z</time>
      </trkpt>
      <trkpt lat="45.1952" lon="1.97671">
        <ele>422</ele>
        <time>2011-12-23T14:18:18.000Z</time>
      </trkpt>
      <trkpt lat="45.1957" lon="1.97643">
        <ele>414</ele>
        <time>2011-12-23T14:18:32.000Z</time>
      </trkpt>
      <trkpt lat="45.1962" lon="1.97613">
        <ele>417</ele>
        <time>2011-12-23T14:18:44.000Z</time>
      </trkpt>
      <trkpt lat="45.1967" lon="1.97579">
        <ele>417</ele>
        <time>2011-12-23T14:18:50.000Z</time>
      </trkpt>
      <trkpt lat="45.1972" lon="1.97559">
        <ele>418</ele>
        <time>2011-12-23T14:18:56.000Z</time>
      </trkpt>
      <trkpt lat="45.1976" lon="1.97575">
        <ele>421</ele>
        <time>2011-12-23T14:19:03.000Z</time>
      </trkpt>
      <trkpt lat="45.1981" lon="1.97554">
        <ele>416</ele>
        <time>2011-12-23T14:19:08.000Z</time>
      </trkpt>
      <trkpt lat="45.1984" lon="1.97609">
        <ele>416</ele>
        <time>2011-12-23T14:19:18.000Z</time>
      </trkpt>
      <trkpt lat="45.1983" lon="1.97673">
        <ele>415</ele>
        <time>2011-12-23T14:19:35.000Z</time>
      </trkpt>
      <trkpt lat="45.1979" lon="1.97692">
        <ele>417</ele>
        <time>2011-12-23T14:19:50.000Z</time>
      </trkpt>
      <trkpt lat="45.1974" lon="1.97722">
        <ele>418</ele>
        <time>2011-12-23T14:20:02.000Z</time>
      </trkpt>
      <trkpt lat="45.197" lon="1.97744">
        <ele>409</ele>
        <time>2011-12-23T14:20:12.000Z</time>
      </trkpt>
      <trkpt lat="45.1969" lon="1.97814">
        <ele>405</ele>
        <time>2011-12-23T14:20:30.000Z</time>
      </trkpt>
      <trkpt lat="45.197" lon="1.97883">
        <ele>404</ele>
        <time>2011-12-23T14:20:42.000Z</time>
      </trkpt>
      <trkpt lat="45.1969" lon="1.97945">
        <ele>404</ele>
        <time>2011-12-23T14:20:55.000Z</time>
      </trkpt>
      <trkpt lat="45.1966" lon="1.97997">
        <ele>412</ele>
        <time>2011-12-23T14:21:10.000Z</time>
      </trkpt>
      <trkpt lat="45.1962" lon="1.97987">
        <ele>424</ele>
        <time>2011-12-23T14:21:30.000Z</time>
      </trkpt>
      <trkpt lat="45.1957" lon="1.9796">
        <ele>430</ele>
        <time>2011-12-23T14:21:40.000Z</time>
      </trkpt>
      <trkpt lat="45.1952" lon="1.97931">
        <ele>431</ele>
        <time>2011-12-23T14:21:52.000Z</time>
      </trkpt>
      <trkpt lat="45.1948" lon="1.97894">
        <ele>427</ele>
        <time>2011-12-23T14:22:02.000Z</time>
      </trkpt>
      <trkpt lat="45.1946" lon="1.97956">
        <ele>416</ele>
        <time>2011-12-23T14:22:26.000Z</time>
      </trkpt>
      <trkpt lat="45.1944" lon="1.98014">
        <ele>415</ele>
        <time>2011-12-23T14:22:44.000Z</time>
      </trkpt>
      <trkpt lat="45.1939" lon="1.98033">
        <ele>423</ele>
        <time>2011-12-23T14:23:00.000Z</time>
      </trkpt>
      <trkpt lat="45.1934" lon="1.98038">
        <ele>432</ele>
        <time>2011-12-23T14:23:14.000Z</time>
      </trkpt>
      <trkpt lat="45.1929" lon="1.98039">
        <ele>436</ele>
        <time>2011-12-23T14:23:27.000Z</time>
      </trkpt>
      <trkpt lat="45.1925" lon="1.98074">
        <ele>438</ele>
        <time>2011-12-23T14:23:47.000Z</time>
      </trkpt>
      <trkpt lat="45.1922" lon="1.98122">
        <ele>435</ele>
        <time>2011-12-23T14:24:07.000Z</time>
      </trkpt>
      <trkpt lat="45.1925" lon="1.98172">
        <ele>440</ele>
        <time>2011-12-23T14:24:27.000Z</time>
      </trkpt>
      <trkpt lat="45.1927" lon="1.98225">
        <ele>447</ele>
        <time>2011-12-23T14:24:37.000Z</time>
      </trkpt>
      <trkpt lat="45.193" lon="1.98289">
        <ele>446</ele>
        <time>2011-12-23T14:24:47.000Z</time>
      </trkpt>
      <trkpt lat="45.1925" lon="1.98334">
        <ele>447</ele>
        <time>2011-12-23T14:25:03.000Z</time>
      </trkpt>
      <trkpt lat="45.192" lon="1.98327">
        <ele>444</ele>
        <time>2011-12-23T14:25:15.000Z</time>
      </trkpt>
      <trkpt lat="45.1918" lon="1.98265">
        <ele>445</ele>
        <time>2011-12-23T14:25:46.000Z</time>
      </trkpt>
      <trkpt lat="45.1915" lon="1.98218">
        <ele>453</ele>
        <time>2011-12-23T14:26:05.000Z</time>
      </trkpt>
      <trkpt lat="45.1912" lon="1.98176">
        <ele>456</ele>
        <time>2011-12-23T14:26:21.000Z</time>
      </trkpt>
      <trkpt lat="45.1911" lon="1.9811">
        <ele>457</ele>
        <time>2011-12-23T14:26:33.000Z</time>
      </trkpt>
      <trkpt lat="45.191" lon="1.98043">
        <ele>451</ele>
        <time>2011-12-23T14:26:47.000Z</time>
      </trkpt>
      <trkpt lat="45.1906" lon="1.98006">
        <ele>454</ele>
        <time>2011-12-23T14:27:25.000Z</time>
      </trkpt>
      <trkpt lat="45.1901" lon="1.98014">
        <ele>454</ele>
        <time>2011-12-23T14:27:36.000Z</time>
      </trkpt>
      <trkpt lat="45.1899" lon="1.97953">
        <ele>458</ele>
        <time>2011-12-23T14:27:52.000Z</time>
      </trkpt>
      <trkpt lat="45.1901" lon="1.97895">
        <ele>467</ele>
        <time>2011-12-23T14:28:09.000Z</time>
      </trkpt>
      <trkpt lat="45.1904" lon="1.97846">
        <ele>469</ele>
        <time>2011-12-23T14:28:24.000Z</time>
      </trkpt>
      <trkpt lat="45.1907" lon="1.97789">
        <ele>467</ele>
        <time>2011-12-23T14:28:40.000Z</time>
      </trkpt>
      <trkpt lat="45.191" lon="1.97735">
        <ele>463</ele>
        <time>2011-12-23T14:28:53.000Z</time>
      </trkpt>
      <trkpt lat="45.1912" lon="1.97678">
        <ele>465</ele>
        <time>2011-12-23T14:29:09.000Z</time>
      </trkpt>
      <trkpt lat="45.1911" lon="1.97613">
        <ele>473</ele>
        <time>2011-12-23T14:29:30.000Z</time>
      </trkpt>
      <trkpt lat="45.1907" lon="1.97595">
        <ele>480</ele>
        <time>2011-12-23T14:29:49.000Z</time>
      </trkpt>
      <trkpt lat="45.1902" lon="1.97577">
        <ele>484</ele>
        <time>2011-12-23T14:30:01.000Z</time>
      </trkpt>
      <trkpt lat="45.1898" lon="1.9757">
        <ele>485</ele>
        <time>2011-12-23T14:30:12.000Z</time>
      </trkpt>
      <trkpt lat="45.1893" lon="1.97573">
        <ele>488</ele>
        <time>2011-12-23T14:30:28.000Z</time>
      </trkpt>
      <trkpt lat="45.1888" lon="1.97572">
        <ele>489</ele>
        <time>2011-12-23T14:30:38.000Z</time>
      </trkpt>
      <trkpt lat="45.1885" lon="1.97521">
        <ele>492</ele>
        <time>2011-12-23T14:30:56.000Z</time>
      </trkpt>
      <trkpt lat="45.1883" lon="1.97469">
        <ele>487</ele>
        <time>2011-12-23T14:31:14.000Z</time>
      </trkpt>
      <trkpt lat="45.1878" lon="1.97472">
        <ele>491</ele>
        <time>2011-12-23T14:31:36.000Z</time>
      </trkpt>
      <trkpt lat="45.1873" lon="1.97481">
        <ele>495</ele>
        <time>2011-12-23T14:31:48.000Z</time>
      </trkpt>
      <trkpt lat="45.1869" lon="1.97493">
        <ele>508</ele>
        <time>2011-12-23T14:32:06.000Z</time>
      </trkpt>
      <trkpt lat="45.1864" lon="1.97505">
        <ele>516</ele>
        <time>2011-12-23T14:32:18.000Z</time>
      </trkpt>
      <trkpt lat="45.1859" lon="1.97521">
        <ele>522</ele>
        <time>2011-12-23T14:32:31.000Z</time>
      </trkpt>
      <trkpt lat="45.1854" lon="1.97536">
        <ele>523</ele>
        <time>2011-12-23T14:32:45.000Z</time>
      </trkpt>
      <trkpt lat="45.185" lon="1.97564">
        <ele>526</ele>
        <time>2011-12-23T14:32:58.000Z</time>
      </trkpt>
      <trkpt lat="45.1845" lon="1.97568">
        <ele>522</ele>
        <time>2011-12-23T14:33:07.000Z</time>
      </trkpt>
      <trkpt lat="45.1842" lon="1.97527">
        <ele>516</ele>
        <time>2011-12-23T14:33:26.000Z</time>
      </trkpt>
      <trkpt lat="45.1837" lon="1.97566">
        <ele>515</ele>
        <time>2011-12-23T14:33:40.000Z</time>
      </trkpt>
      <trkpt lat="45.1834" lon="1.9761">
        <ele>518</ele>
        <time>2011-12-23T14:33:56.000Z</time>
      </trkpt>
      <trkpt lat="45.183" lon="1.97651">
        <ele>518</ele>
        <time>2011-12-23T14:34:12.000Z</time>
      </trkpt>
      <trkpt lat="45.1826" lon="1.97694">
        <ele>519</ele>
        <time>2011-12-23T14:34:26.000Z</time>
      </trkpt>
      <trkpt lat="45.1823" lon="1.97742">
        <ele>522</ele>
        <time>2011-12-23T14:34:40.000Z</time>
      </trkpt>
      <trkpt lat="45.182" lon="1.97788">
        <ele>522</ele>
        <time>2011-12-23T14:34:52.000Z</time>
      </trkpt>
      <trkpt lat="45.1819" lon="1.97851">
        <ele>523</ele>
        <time>2011-12-23T14:35:06.000Z</time>
      </trkpt>
      <trkpt lat="45.1815" lon="1.97894">
        <ele>527</ele>
        <time>2011-12-23T14:35:21.000Z</time>
      </trkpt>
      <trkpt lat="45.1812" lon="1.97946">
        <ele>529</ele>
        <time>2011-12-23T14:35:34.000Z</time>
      </trkpt>
      <trkpt lat="45.181" lon="1.98008">
        <ele>528</ele>
        <time>2011-12-23T14:35:48.000Z</time>
      </trkpt>
      <trkpt lat="45.1809" lon="1.98075">
        <ele>531</ele>
        <time>2011-12-23T14:36:06.000Z</time>
      </trkpt>
      <trkpt lat="45.1806" lon="1.98129">
        <ele>540</ele>
        <time>2011-12-23T14:36:24.000Z</time>
      </trkpt>
      <trkpt lat="45.1802" lon="1.98162">
        <ele>540</ele>
        <time>2011-12-23T14:36:41.000Z</time>
      </trkpt>
      <trkpt lat="45.1798" lon="1.98196">
        <ele>547</ele>
        <time>2011-12-23T14:36:57.000Z</time>
      </trkpt>
      <trkpt lat="45.1793" lon="1.98207">
        <ele>555</ele>
        <time>2011-12-23T14:37:11.000Z</time>
      </trkpt>
      <trkpt lat="45.1789" lon="1.98233">
        <ele>552</ele>
        <time>2011-12-23T14:37:26.000Z</time>
      </trkpt>
      <trkpt lat="45.1785" lon="1.98269">
        <ele>552</ele>
        <time>2011-12-23T14:37:39.000Z</time>
      </trkpt>
      <trkpt lat="45.1783" lon="1.98326">
        <ele>555</ele>
        <time>2011-12-23T14:37:53.000Z</time>
      </trkpt>
      <trkpt lat="45.1779" lon="1.98372">
        <ele>556</ele>
        <time>2011-12-23T14:38:09.000Z</time>
      </trkpt>
      <trkpt lat="45.1775" lon="1.98421">
        <ele>552</ele>
        <time>2011-12-23T14:38:21.000Z</time>
      </trkpt>
      <trkpt lat="45.1775" lon="1.98485">
        <ele>550</ele>
        <time>2011-12-23T14:38:31.000Z</time>
      </trkpt>
      <trkpt lat="45.1771" lon="1.98503">
        <ele>544</ele>
        <time>2011-12-23T14:38:41.000Z</time>
      </trkpt>
      <trkpt lat="45.1767" lon="1.98468">
        <ele>548</ele>
        <time>2011-12-23T14:38:53.000Z</time>
      </trkpt>
      <trkpt lat="45.1765" lon="1.98411">
        <ele>554</ele>
        <time>2011-12-23T14:39:08.000Z</time>
      </trkpt>
      <trkpt lat="45.176" lon="1.98415">
        <ele>554</ele>
        <time>2011-12-23T14:39:30.000Z</time>
      </trkpt>
      <trkpt lat="45.1755" lon="1.98435">
        <ele>553</ele>
        <time>2011-12-23T14:39:40.000Z</time>
      </trkpt>
      <trkpt lat="45.175" lon="1.98452">
        <ele>551</ele>
        <time>2011-12-23T14:39:49.000Z</time>
      </trkpt>
      <trkpt lat="45.1745" lon="1.98474">
        <ele>549</ele>
        <time>2011-12-23T14:39:58.000Z</time>
      </trkpt>
      <trkpt lat="45.1741" lon="1.98474">
        <ele>547</ele>
        <time>2011-12-23T14:40:06.000Z</time>
      </trkpt>
      <trkpt lat="45.1736" lon="1.98465">
        <ele>548</ele>
        <time>2011-12-23T14:40:15.000Z</time>
      </trkpt>
      <trkpt lat="45.1732" lon="1.98439">
        <ele>548</ele>
        <time>2011-12-23T14:40:26.000Z</time>
      </trkpt>
      <trkpt lat="45.1727" lon="1.98421">
        <ele>550</ele>
        <time>2011-12-23T14:40:37.000Z</time>
      </trkpt>
      <trkpt lat="45.1723" lon="1.9841">
        <ele>554</ele>
        <time>2011-12-23T14:40:48.000Z</time>
      </trkpt>
      <trkpt lat="45.1718" lon="1.98377">
        <ele>554</ele>
        <time>2011-12-23T14:41:00.000Z</time>
      </trkpt>
      <trkpt lat="45.1714" lon="1.98354">
        <ele>553</ele>
        <time>2011-12-23T14:41:12.000Z</time>
      </trkpt>
      <trkpt lat="45.1709" lon="1.98333">
        <ele>553</ele>
        <time>2011-12-23T14:41:25.000Z</time>
      </trkpt>
      <trkpt lat="45.1705" lon="1.98299">
        <ele>557</ele>
        <time>2011-12-23T14:41:37.000Z</time>
      </trkpt>
      <trkpt lat="45.1701" lon="1.98261">
        <ele>559</ele>
        <time>2011-12-23T14:41:49.000Z</time>
      </trkpt>
      <trkpt lat="45.1698" lon="1.98212">
        <ele>566</ele>
        <time>2011-12-23T14:42:02.000Z</time>
      </trkpt>
      <trkpt lat="45.1695" lon="1.98151">
        <ele>568</ele>
        <time>2011-12-23T14:42:20.000Z</time>
      </trkpt>
      <trkpt lat="45.1691" lon="1.98129">
        <ele>564</ele>
        <time>2011-12-23T14:42:30.000Z</time>
      </trkpt>
      <trkpt lat="45.1687" lon="1.98107">
        <ele>570</ele>
        <time>2011-12-23T14:42:41.000Z</time>
      </trkpt>
      <trkpt lat="45.1682" lon="1.98075">
        <ele>566</ele>
        <time>2011-12-23T14:42:52.000Z</time>
      </trkpt>
      <trkpt lat="45.1678" lon="1.98052">
        <ele>569</ele>
        <time>2011-12-23T14:43:05.000Z</time>
      </trkpt>
      <trkpt lat="45.1674" lon="1.98016">
        <ele>572</ele>
        <time>2011-12-23T14:43:21.000Z</time>
      </trkpt>
      <trkpt lat="45.1669" lon="1.98013">
        <ele>580</ele>
        <time>2011-12-23T14:43:36.000Z</time>
      </trkpt>
      <trkpt lat="45.1665" lon="1.98013">
        <ele>580</ele>
        <time>2011-12-23T14:43:42.000Z</time>
      </trkpt>
      <trkpt lat="45.1662" lon="1.97957">
        <ele>584</ele>
        <time>2011-12-23T14:47:02.000Z</time>
      </trkpt>
      <trkpt lat="45.1659" lon="1.97907">
        <ele>592</ele>
        <time>2011-12-23T14:47:22.000Z</time>
      </trkpt>
      <trkpt lat="45.1655" lon="1.97871">
        <ele>602</ele>
        <time>2011-12-23T14:47:34.000Z</time>
      </trkpt>
      <trkpt lat="45.1651" lon="1.97839">
        <ele>601</ele>
        <time>2011-12-23T14:47:44.000Z</time>
      </trkpt>
      <trkpt lat="45.1648" lon="1.97787">
        <ele>598</ele>
        <time>2011-12-23T14:47:54.000Z</time>
      </trkpt>
      <trkpt lat="45.1645" lon="1.97737">
        <ele>589</ele>
        <time>2011-12-23T14:48:02.000Z</time>
      </trkpt>
      <trkpt lat="45.1641" lon="1.97688">
        <ele>594</ele>
        <time>2011-12-23T14:48:10.000Z</time>
      </trkpt>
      <trkpt lat="45.1638" lon="1.97633">
        <ele>597</ele>
        <time>2011-12-23T14:48:18.000Z</time>
      </trkpt>
      <trkpt lat="45.1635" lon="1.97577">
        <ele>597</ele>
        <time>2011-12-23T14:48:26.000Z</time>
      </trkpt>
      <trkpt lat="45.1632" lon="1.97529">
        <ele>600</ele>
        <time>2011-12-23T14:48:36.000Z</time>
      </trkpt>
      <trkpt lat="45.1628" lon="1.97487">
        <ele>599</ele>
        <time>2011-12-23T14:48:46.000Z</time>
      </trkpt>
      <trkpt lat="45.1622" lon="1.97459">
        <ele>601</ele>
        <time>2011-12-23T14:48:54.000Z</time>
      </trkpt>
      <trkpt lat="45.1618" lon="1.97435">
        <ele>605</ele>
        <time>2011-12-23T14:49:00.000Z</time>
      </trkpt>
      <trkpt lat="45.1614" lon="1.97396">
        <ele>605</ele>
        <time>2011-12-23T14:49:07.000Z</time>
      </trkpt>
      <trkpt lat="45.161" lon="1.97341">
        <ele>598</ele>
        <time>2011-12-23T14:49:14.000Z</time>
      </trkpt>
      <trkpt lat="45.1607" lon="1.97296">
        <ele>597</ele>
        <time>2011-12-23T14:49:21.000Z</time>
      </trkpt>
      <trkpt lat="45.1604" lon="1.97231">
        <ele>591</ele>
        <time>2011-12-23T14:49:28.000Z</time>
      </trkpt>
      <trkpt lat="45.16" lon="1.97181">
        <ele>587</ele>
        <time>2011-12-23T14:49:34.000Z</time>
      </trkpt>
      <trkpt lat="45.1596" lon="1.97124">
        <ele>578</ele>
        <time>2011-12-23T14:49:40.000Z</time>
      </trkpt>
      <trkpt lat="45.1592" lon="1.97092">
        <ele>574</ele>
        <time>2011-12-23T14:49:45.000Z</time>
      </trkpt>
      <trkpt lat="45.1588" lon="1.97059">
        <ele>568</ele>
        <time>2011-12-23T14:49:50.000Z</time>
      </trkpt>
      <trkpt lat="45.1583" lon="1.97048">
        <ele>563</ele>
        <time>2011-12-23T14:49:56.000Z</time>
      </trkpt>
      <trkpt lat="45.1578" lon="1.97045">
        <ele>562</ele>
        <time>2011-12-23T14:50:04.000Z</time>
      </trkpt>
      <trkpt lat="45.1574" lon="1.96998">
        <ele>562</ele>
        <time>2011-12-23T14:50:12.000Z</time>
      </trkpt>
      <trkpt lat="45.1571" lon="1.96937">
        <ele>561</ele>
        <time>2011-12-23T14:50:20.000Z</time>
      </trkpt>
      <trkpt lat="45.1567" lon="1.96891">
        <ele>555</ele>
        <time>2011-12-23T14:50:26.000Z</time>
      </trkpt>
      <trkpt lat="45.1563" lon="1.96886">
        <ele>553</ele>
        <time>2011-12-23T14:50:32.000Z</time>
      </trkpt>
      <trkpt lat="45.1558" lon="1.96859">
        <ele>553</ele>
        <time>2011-12-23T14:50:38.000Z</time>
      </trkpt>
      <trkpt lat="45.1554" lon="1.96837">
        <ele>550</ele>
        <time>2011-12-23T14:50:44.000Z</time>
      </trkpt>
      <trkpt lat="45.155" lon="1.96794">
        <ele>540</ele>
        <time>2011-12-23T14:50:49.000Z</time>
      </trkpt>
      <trkpt lat="45.1545" lon="1.96796">
        <ele>538</ele>
        <time>2011-12-23T14:50:56.000Z</time>
      </trkpt>
      <trkpt lat="45.154" lon="1.96809">
        <ele>537</ele>
        <time>2011-12-23T14:51:01.000Z</time>
      </trkpt>
      <trkpt lat="45.1535" lon="1.96831">
        <ele>537</ele>
        <time>2011-12-23T14:51:08.000Z</time>
      </trkpt>
      <trkpt lat="45.153" lon="1.96855">
        <ele>537</ele>
        <time>2011-12-23T14:51:16.000Z</time>
      </trkpt>
      <trkpt lat="45.1526" lon="1.96834">
        <ele>540</ele>
        <time>2011-12-23T14:51:25.000Z</time>
      </trkpt>
      <trkpt lat="45.1526" lon="1.96753">
        <ele>541</ele>
        <time>2011-12-23T14:51:32.000Z</time>
      </trkpt>
      <trkpt lat="45.1525" lon="1.96686">
        <ele>531</ele>
        <time>2011-12-23T14:51:40.000Z</time>
      </trkpt>
      <trkpt lat="45.1521" lon="1.96651">
        <ele>527</ele>
        <time>2011-12-23T14:51:48.000Z</time>
      </trkpt>
      <trkpt lat="45.1517" lon="1.96634">
        <ele>523</ele>
        <time>2011-12-23T14:51:54.000Z</time>
      </trkpt>
      <trkpt lat="45.152" lon="1.96583">
        <ele>520</ele>
        <time>2011-12-23T14:52:04.000Z</time>
      </trkpt>
      <trkpt lat="45.1525" lon="1.96558">
        <ele>520</ele>
        <time>2011-12-23T14:52:10.000Z</time>
      </trkpt>
      <trkpt lat="45.153" lon="1.96567">
        <ele>518</ele>
        <time>2011-12-23T14:52:14.000Z</time>
      </trkpt>
      <trkpt lat="45.1535" lon="1.9653">
        <ele>517</ele>
        <time>2011-12-23T14:52:26.000Z</time>
      </trkpt>
      <trkpt lat="45.1539" lon="1.96486">
        <ele>512</ele>
        <time>2011-12-23T14:52:30.000Z</time>
      </trkpt>
      <trkpt lat="45.1541" lon="1.96429">
        <ele>509</ele>
        <time>2011-12-23T14:52:36.000Z</time>
      </trkpt>
      <trkpt lat="45.1545" lon="1.96365">
        <ele>503</ele>
        <time>2011-12-23T14:52:44.000Z</time>
      </trkpt>
      <trkpt lat="45.1549" lon="1.9638">
        <ele>495</ele>
        <time>2011-12-23T14:52:53.000Z</time>
      </trkpt>
      <trkpt lat="45.1548" lon="1.96318">
        <ele>501</ele>
        <time>2011-12-23T14:53:13.000Z</time>
      </trkpt>
      <trkpt lat="45.1547" lon="1.96245">
        <ele>498</ele>
        <time>2011-12-23T14:53:18.000Z</time>
      </trkpt>
      <trkpt lat="45.1549" lon="1.96182">
        <ele>484</ele>
        <time>2011-12-23T14:53:24.000Z</time>
      </trkpt>
      <trkpt lat="45.1552" lon="1.96231">
        <ele>479</ele>
        <time>2011-12-23T14:53:36.000Z</time>
      </trkpt>
      <trkpt lat="45.1552" lon="1.96165">
        <ele>465</ele>
        <time>2011-12-23T14:53:56.000Z</time>
      </trkpt>
      <trkpt lat="45.155" lon="1.96108">
        <ele>459</ele>
        <time>2011-12-23T14:54:04.000Z</time>
      </trkpt>
      <trkpt lat="45.1545" lon="1.96102">
        <ele>457</ele>
        <time>2011-12-23T14:54:10.000Z</time>
      </trkpt>
      <trkpt lat="45.154" lon="1.96142">
        <ele>455</ele>
        <time>2011-12-23T14:54:15.000Z</time>
      </trkpt>
      <trkpt lat="45.1537" lon="1.96182">
        <ele>452</ele>
        <time>2011-12-23T14:54:19.000Z</time>
      </trkpt>
      <trkpt lat="45.1534" lon="1.96248">
        <ele>448</ele>
        <time>2011-12-23T14:54:24.000Z</time>
      </trkpt>
      <trkpt lat="45.1531" lon="1.963">
        <ele>443</ele>
        <time>2011-12-23T14:54:35.000Z</time>
      </trkpt>
      <trkpt lat="45.153" lon="1.96235">
        <ele>440</ele>
        <time>2011-12-23T14:54:44.000Z</time>
      </trkpt>
      <trkpt lat="45.1531" lon="1.9617">
        <ele>441</ele>
        <time>2011-12-23T14:54:49.000Z</time>
      </trkpt>
      <trkpt lat="45.1533" lon="1.96102">
        <ele>436</ele>
        <time>2011-12-23T14:54:53.000Z</time>
      </trkpt>
      <trkpt lat="45.1535" lon="1.96016">
        <ele>426</ele>
        <time>2011-12-23T14:54:59.000Z</time>
      </trkpt>
      <trkpt lat="45.1537" lon="1.95963">
        <ele>423</ele>
        <time>2011-12-23T14:55:05.000Z</time>
      </trkpt>
      <trkpt lat="45.154" lon="1.95903">
        <ele>421</ele>
        <time>2011-12-23T14:55:12.000Z</time>
      </trkpt>
      <trkpt lat="45.1546" lon="1.95853">
        <ele>416</ele>
        <time>2011-12-23T14:55:19.000Z</time>
      </trkpt>
      <trkpt lat="45.1551" lon="1.95838">
        <ele>413</ele>
        <time>2011-12-23T14:55:24.000Z</time>
      </trkpt>
      <trkpt lat="45.1556" lon="1.95855">
        <ele>408</ele>
        <time>2011-12-23T14:55:31.000Z</time>
      </trkpt>
      <trkpt lat="45.156" lon="1.9589">
        <ele>401</ele>
        <time>2011-12-23T14:55:36.000Z</time>
      </trkpt>
      <trkpt lat="45.1556" lon="1.95868">
        <ele>389</ele>
        <time>2011-12-23T14:55:59.000Z</time>
      </trkpt>
      <trkpt lat="45.1553" lon="1.95817">
        <ele>385</ele>
        <time>2011-12-23T14:56:07.000Z</time>
      </trkpt>
      <trkpt lat="45.1549" lon="1.95787">
        <ele>382</ele>
        <time>2011-12-23T14:56:14.000Z</time>
      </trkpt>
      <trkpt lat="45.1542" lon="1.95796">
        <ele>380</ele>
        <time>2011-12-23T14:56:20.000Z</time>
      </trkpt>
      <trkpt lat="45.1537" lon="1.95806">
        <ele>377</ele>
        <time>2011-12-23T14:56:24.000Z</time>
      </trkpt>
      <trkpt lat="45.1533" lon="1.95855">
        <ele>375</ele>
        <time>2011-12-23T14:56:30.000Z</time>
      </trkpt>
      <trkpt lat="45.1531" lon="1.95929">
        <ele>373</ele>
        <time>2011-12-23T14:56:36.000Z</time>
      </trkpt>
      <trkpt lat="45.1527" lon="1.95975">
        <ele>371</ele>
        <time>2011-12-23T14:56:44.000Z</time>
      </trkpt>
      <trkpt lat="45.1524" lon="1.95923">
        <ele>375</ele>
        <time>2011-12-23T14:56:56.000Z</time>
      </trkpt>
      <trkpt lat="45.1521" lon="1.95866">
        <ele>372</ele>
        <time>2011-12-23T14:57:02.000Z</time>
      </trkpt>
      <trkpt lat="45.1519" lon="1.95795">
        <ele>362</ele>
        <time>2011-12-23T14:57:08.000Z</time>
      </trkpt>
      <trkpt lat="45.1514" lon="1.95776">
        <ele>359</ele>
        <time>2011-12-23T14:57:16.000Z</time>
      </trkpt>
      <trkpt lat="45.1511" lon="1.95723">
        <ele>358</ele>
        <time>2011-12-23T14:57:22.000Z</time>
      </trkpt>
      <trkpt lat="45.1509" lon="1.9567">
        <ele>350</ele>
        <time>2011-12-23T14:57:28.000Z</time>
      </trkpt>
      <trkpt lat="45.1504" lon="1.95655">
        <ele>342</ele>
        <time>2011-12-23T14:57:37.000Z</time>
      </trkpt>
      <trkpt lat="45.1502" lon="1.95719">
        <ele>339</ele>
        <time>2011-12-23T14:57:44.000Z</time>
      </trkpt>
      <trkpt lat="45.1498" lon="1.95695">
        <ele>340</ele>
        <time>2011-12-23T14:58:04.000Z</time>
      </trkpt>
      <trkpt lat="45.1497" lon="1.95627">
        <ele>340</ele>
        <time>2011-12-23T14:58:10.000Z</time>
      </trkpt>
      <trkpt lat="45.1499" lon="1.95546">
        <ele>332</ele>
        <time>2011-12-23T14:58:16.000Z</time>
      </trkpt>
      <trkpt lat="45.1503" lon="1.955">
        <ele>323</ele>
        <time>2011-12-23T14:58:22.000Z</time>
      </trkpt>
      <trkpt lat="45.1507" lon="1.95473">
        <ele>316</ele>
        <time>2011-12-23T14:58:26.000Z</time>
      </trkpt>
      <trkpt lat="45.1513" lon="1.95436">
        <ele>312</ele>
        <time>2011-12-23T14:58:32.000Z</time>
      </trkpt>
      <trkpt lat="45.1518" lon="1.95416">
        <ele>305</ele>
        <time>2011-12-23T14:58:40.000Z</time>
      </trkpt>
      <trkpt lat="45.1518" lon="1.95349">
        <ele>298</ele>
        <time>2011-12-23T14:58:51.000Z</time>
      </trkpt>
      <trkpt lat="45.1515" lon="1.95281">
        <ele>290</ele>
        <time>2011-12-23T14:59:04.000Z</time>
      </trkpt>
      <trkpt lat="45.1511" lon="1.95313">
        <ele>284</ele>
        <time>2011-12-23T15:00:06.000Z</time>
      </trkpt>
      <trkpt lat="45.1507" lon="1.95324">
        <ele>282</ele>
        <time>2011-12-23T15:00:15.000Z</time>
      </trkpt>
      <trkpt lat="45.1502" lon="1.95343">
        <ele>284</ele>
        <time>2011-12-23T15:00:26.000Z</time>
      </trkpt>
      <trkpt lat="45.1497" lon="1.95341">
        <ele>282</ele>
        <time>2011-12-23T15:00:34.000Z</time>
      </trkpt>
      <trkpt lat="45.1492" lon="1.95365">
        <ele>288</ele>
        <time>2011-12-23T15:00:49.000Z</time>
      </trkpt>
      <trkpt lat="45.1487" lon="1.9539">
        <ele>291</ele>
        <time>2011-12-23T15:01:00.000Z</time>
      </trkpt>
      <trkpt lat="45.1482" lon="1.95403">
        <ele>291</ele>
        <time>2011-12-23T15:01:06.000Z</time>
      </trkpt>
      <trkpt lat="45.1477" lon="1.95423">
        <ele>291</ele>
        <time>2011-12-23T15:01:12.000Z</time>
      </trkpt>
      <trkpt lat="45.1471" lon="1.9543">
        <ele>287</ele>
        <time>2011-12-23T15:01:16.000Z</time>
      </trkpt>
      <trkpt lat="45.1466" lon="1.95429">
        <ele>283</ele>
        <time>2011-12-23T15:01:20.000Z</time>
      </trkpt>
      <trkpt lat="45.146" lon="1.95433">
        <ele>277</ele>
        <time>2011-12-23T15:01:26.000Z</time>
      </trkpt>
      <trkpt lat="45.1455" lon="1.95437">
        <ele>276</ele>
        <time>2011-12-23T15:01:32.000Z</time>
      </trkpt>
      <trkpt lat="45.145" lon="1.95447">
        <ele>275</ele>
        <time>2011-12-23T15:01:39.000Z</time>
      </trkpt>
      <trkpt lat="45.1445" lon="1.95465">
        <ele>272</ele>
        <time>2011-12-23T15:01:46.000Z</time>
      </trkpt>
      <trkpt lat="45.144" lon="1.95502">
        <ele>269</ele>
        <time>2011-12-23T15:01:54.000Z</time>
      </trkpt>
      <trkpt lat="45.1436" lon="1.95526">
        <ele>267</ele>
        <time>2011-12-23T15:02:00.000Z</time>
      </trkpt>
      <trkpt lat="45.1431" lon="1.95541">
        <ele>270</ele>
        <time>2011-12-23T15:02:14.000Z</time>
      </trkpt>
      <trkpt lat="45.1426" lon="1.95533">
        <ele>276</ele>
        <time>2011-12-23T15:02:27.000Z</time>
      </trkpt>
      <trkpt lat="45.1421" lon="1.95506">
        <ele>284</ele>
        <time>2011-12-23T15:02:34.000Z</time>
      </trkpt>
      <trkpt lat="45.1417" lon="1.95469">
        <ele>289</ele>
        <time>2011-12-23T15:02:42.000Z</time>
      </trkpt>
      <trkpt lat="45.1412" lon="1.95425">
        <ele>288</ele>
        <time>2011-12-23T15:02:50.000Z</time>
      </trkpt>
      <trkpt lat="45.1408" lon="1.95379">
        <ele>283</ele>
        <time>2011-12-23T15:02:59.000Z</time>
      </trkpt>
      <trkpt lat="45.1403" lon="1.95353">
        <ele>281</ele>
        <time>2011-12-23T15:03:07.000Z</time>
      </trkpt>
      <trkpt lat="45.1398" lon="1.95336">
        <ele>281</ele>
        <time>2011-12-23T15:03:16.000Z</time>
      </trkpt>
      <trkpt lat="45.1393" lon="1.95308">
        <ele>287</ele>
        <time>2011-12-23T15:03:26.000Z</time>
      </trkpt>
      <trkpt lat="45.139" lon="1.95268">
        <ele>290</ele>
        <time>2011-12-23T15:03:35.000Z</time>
      </trkpt>
      <trkpt lat="45.1385" lon="1.95228">
        <ele>298</ele>
        <time>2011-12-23T15:03:43.000Z</time>
      </trkpt>
      <trkpt lat="45.1381" lon="1.95197">
        <ele>300</ele>
        <time>2011-12-23T15:03:48.000Z</time>
      </trkpt>
      <trkpt lat="45.1377" lon="1.95156">
        <ele>300</ele>
        <time>2011-12-23T15:03:55.000Z</time>
      </trkpt>
      <trkpt lat="45.1374" lon="1.95103">
        <ele>293</ele>
        <time>2011-12-23T15:04:03.000Z</time>
      </trkpt>
      <trkpt lat="45.1371" lon="1.95052">
        <ele>288</ele>
        <time>2011-12-23T15:04:11.000Z</time>
      </trkpt>
      <trkpt lat="45.1368" lon="1.94983">
        <ele>288</ele>
        <time>2011-12-23T15:04:21.000Z</time>
      </trkpt>
      <trkpt lat="45.1366" lon="1.94918">
        <ele>286</ele>
        <time>2011-12-23T15:04:30.000Z</time>
      </trkpt>
      <trkpt lat="45.1364" lon="1.94861">
        <ele>277</ele>
        <time>2011-12-23T15:04:39.000Z</time>
      </trkpt>
      <trkpt lat="45.1359" lon="1.94874">
        <ele>275</ele>
        <time>2011-12-23T15:04:53.000Z</time>
      </trkpt>
      <trkpt lat="45.1354" lon="1.94889">
        <ele>273</ele>
        <time>2011-12-23T15:05:01.000Z</time>
      </trkpt>
      <trkpt lat="45.135" lon="1.94928">
        <ele>276</ele>
        <time>2011-12-23T15:05:09.000Z</time>
      </trkpt>
      <trkpt lat="45.1346" lon="1.94971">
        <ele>281</ele>
        <time>2011-12-23T15:05:15.000Z</time>
      </trkpt>
      <trkpt lat="45.1344" lon="1.95026">
        <ele>284</ele>
        <time>2011-12-23T15:05:21.000Z</time>
      </trkpt>
      <trkpt lat="45.1341" lon="1.95077">
        <ele>278</ele>
        <time>2011-12-23T15:05:26.000Z</time>
      </trkpt>
      <trkpt lat="45.1336" lon="1.95105">
        <ele>279</ele>
        <time>2011-12-23T15:05:37.000Z</time>
      </trkpt>
      <trkpt lat="45.1331" lon="1.95118">
        <ele>276</ele>
        <time>2011-12-23T15:05:44.000Z</time>
      </trkpt>
      <trkpt lat="45.1326" lon="1.95155">
        <ele>270</ele>
        <time>2011-12-23T15:05:54.000Z</time>
      </trkpt>
      <trkpt lat="45.1321" lon="1.95172">
        <ele>269</ele>
        <time>2011-12-23T15:06:02.000Z</time>
      </trkpt>
      <trkpt lat="45.1316" lon="1.95193">
        <ele>269</ele>
        <time>2011-12-23T15:06:12.000Z</time>
      </trkpt>
      <trkpt lat="45.1312" lon="1.95231">
        <ele>277</ele>
        <time>2011-12-23T15:06:30.000Z</time>
      </trkpt>
      <trkpt lat="45.1307" lon="1.95228">
        <ele>273</ele>
        <time>2011-12-23T15:06:42.000Z</time>
      </trkpt>
      <trkpt lat="45.1311" lon="1.95191">
        <ele>283</ele>
        <time>2011-12-23T15:07:02.000Z</time>
      </trkpt>
      <trkpt lat="45.1316" lon="1.95166">
        <ele>284</ele>
        <time>2011-12-23T15:07:06.000Z</time>
      </trkpt>
      <trkpt lat="45.1321" lon="1.95152">
        <ele>274</ele>
        <time>2011-12-23T15:07:11.000Z</time>
      </trkpt>
      <trkpt lat="45.1325" lon="1.95113">
        <ele>272</ele>
        <time>2011-12-23T15:07:19.000Z</time>
      </trkpt>
      <trkpt lat="45.133" lon="1.95098">
        <ele>271</ele>
        <time>2011-12-23T15:07:26.000Z</time>
      </trkpt>
      <trkpt lat="45.1335" lon="1.95085">
        <ele>269</ele>
        <time>2011-12-23T15:07:34.000Z</time>
      </trkpt>
      <trkpt lat="45.1339" lon="1.95048">
        <ele>265</ele>
        <time>2011-12-23T15:07:43.000Z</time>
      </trkpt>
      <trkpt lat="45.134" lon="1.94984">
        <ele>270</ele>
        <time>2011-12-23T15:07:56.000Z</time>
      </trkpt>
      <trkpt lat="45.1342" lon="1.94927">
        <ele>278</ele>
        <time>2011-12-23T15:08:06.000Z</time>
      </trkpt>
      <trkpt lat="45.1346" lon="1.94889">
        <ele>270</ele>
        <time>2011-12-23T15:08:14.000Z</time>
      </trkpt>
      <trkpt lat="45.135" lon="1.94862">
        <ele>268</ele>
        <time>2011-12-23T15:08:24.000Z</time>
      </trkpt>
      <trkpt lat="45.1355" lon="1.94832">
        <ele>269</ele>
        <time>2011-12-23T15:08:35.000Z</time>
      </trkpt>
      <trkpt lat="45.136" lon="1.94821">
        <ele>271</ele>
        <time>2011-12-23T15:08:44.000Z</time>
      </trkpt>
      <trkpt lat="45.1364" lon="1.94844">
        <ele>266</ele>
        <time>2011-12-23T15:08:54.000Z</time>
      </trkpt>
      <trkpt lat="45.1367" lon="1.94889">
        <ele>263</ele>
        <time>2011-12-23T15:09:03.000Z</time>
      </trkpt>
      <trkpt lat="45.1371" lon="1.94948">
        <ele>270</ele>
        <time>2011-12-23T15:09:15.000Z</time>
      </trkpt>
      <trkpt lat="45.1374" lon="1.95">
        <ele>278</ele>
        <time>2011-12-23T15:09:25.000Z</time>
      </trkpt>
      <trkpt lat="45.1376" lon="1.95055">
        <ele>282</ele>
        <time>2011-12-23T15:09:33.000Z</time>
      </trkpt>
      <trkpt lat="45.1379" lon="1.95112">
        <ele>287</ele>
        <time>2011-12-23T15:09:43.000Z</time>
      </trkpt>
      <trkpt lat="45.1383" lon="1.95155">
        <ele>291</ele>
        <time>2011-12-23T15:09:55.000Z</time>
      </trkpt>
      <trkpt lat="45.1386" lon="1.95206">
        <ele>294</ele>
        <time>2011-12-23T15:10:04.000Z</time>
      </trkpt>
      <trkpt lat="45.1389" lon="1.95255">
        <ele>301</ele>
        <time>2011-12-23T15:10:12.000Z</time>
      </trkpt>
      <trkpt lat="45.1394" lon="1.95281">
        <ele>301</ele>
        <time>2011-12-23T15:10:21.000Z</time>
      </trkpt>
      <trkpt lat="45.1399" lon="1.95293">
        <ele>294</ele>
        <time>2011-12-23T15:10:29.000Z</time>
      </trkpt>
      <trkpt lat="45.1403" lon="1.95316">
        <ele>286</ele>
        <time>2011-12-23T15:10:36.000Z</time>
      </trkpt>
      <trkpt lat="45.1407" lon="1.95353">
        <ele>289</ele>
        <time>2011-12-23T15:10:45.000Z</time>
      </trkpt>
      <trkpt lat="45.1411" lon="1.95377">
        <ele>287</ele>
        <time>2011-12-23T15:10:56.000Z</time>
      </trkpt>
      <trkpt lat="45.1415" lon="1.95414">
        <ele>285</ele>
        <time>2011-12-23T15:11:06.000Z</time>
      </trkpt>
      <trkpt lat="45.1419" lon="1.95449">
        <ele>285</ele>
        <time>2011-12-23T15:11:18.000Z</time>
      </trkpt>
      <trkpt lat="45.1424" lon="1.95475">
        <ele>298</ele>
        <time>2011-12-23T15:11:28.000Z</time>
      </trkpt>
      <trkpt lat="45.1428" lon="1.95501">
        <ele>294</ele>
        <time>2011-12-23T15:11:36.000Z</time>
      </trkpt>
      <trkpt lat="45.1433" lon="1.95494">
        <ele>290</ele>
        <time>2011-12-23T15:11:42.000Z</time>
      </trkpt>
      <trkpt lat="45.1438" lon="1.95493">
        <ele>281</ele>
        <time>2011-12-23T15:11:48.000Z</time>
      </trkpt>
      <trkpt lat="45.1443" lon="1.95464">
        <ele>274</ele>
        <time>2011-12-23T15:11:56.000Z</time>
      </trkpt>
      <trkpt lat="45.1448" lon="1.95439">
        <ele>272</ele>
        <time>2011-12-23T15:12:04.000Z</time>
      </trkpt>
      <trkpt lat="45.1452" lon="1.95427">
        <ele>270</ele>
        <time>2011-12-23T15:12:12.000Z</time>
      </trkpt>
      <trkpt lat="45.1457" lon="1.9542">
        <ele>269</ele>
        <time>2011-12-23T15:12:21.000Z</time>
      </trkpt>
      <trkpt lat="45.1462" lon="1.9542">
        <ele>268</ele>
        <time>2011-12-23T15:12:28.000Z</time>
      </trkpt>
      <trkpt lat="45.1467" lon="1.95421">
        <ele>267</ele>
        <time>2011-12-23T15:12:38.000Z</time>
      </trkpt>
      <trkpt lat="45.1471" lon="1.95413">
        <ele>273</ele>
        <time>2011-12-23T15:12:54.000Z</time>
      </trkpt>
      <trkpt lat="45.1476" lon="1.95396">
        <ele>278</ele>
        <time>2011-12-23T15:13:05.000Z</time>
      </trkpt>
      <trkpt lat="45.1481" lon="1.95394">
        <ele>276</ele>
        <time>2011-12-23T15:13:15.000Z</time>
      </trkpt>
      <trkpt lat="45.1485" lon="1.95371">
        <ele>278</ele>
        <time>2011-12-23T15:13:30.000Z</time>
      </trkpt>
      <trkpt lat="45.1489" lon="1.95351">
        <ele>280</ele>
        <time>2011-12-23T15:13:41.000Z</time>
      </trkpt>
      <trkpt lat="45.1494" lon="1.95326">
        <ele>281</ele>
        <time>2011-12-23T15:13:50.000Z</time>
      </trkpt>
      <trkpt lat="45.1499" lon="1.95328">
        <ele>281</ele>
        <time>2011-12-23T15:13:59.000Z</time>
      </trkpt>
      <trkpt lat="45.1503" lon="1.95318">
        <ele>277</ele>
        <time>2011-12-23T15:14:07.000Z</time>
      </trkpt>
      <trkpt lat="45.1508" lon="1.95293">
        <ele>279</ele>
        <time>2011-12-23T15:14:15.000Z</time>
      </trkpt>
      <trkpt lat="45.1513" lon="1.95289">
        <ele>280</ele>
        <time>2011-12-23T15:14:23.000Z</time>
      </trkpt>
      <trkpt lat="45.1517" lon="1.95313">
        <ele>277</ele>
        <time>2011-12-23T15:14:35.000Z</time>
      </trkpt>
      <trkpt lat="45.1521" lon="1.95322">
        <ele>280</ele>
        <time>2011-12-23T15:14:48.000Z</time>
      </trkpt>
      <trkpt lat="45.1526" lon="1.95314">
        <ele>282</ele>
        <time>2011-12-23T15:14:58.000Z</time>
      </trkpt>
      <trkpt lat="45.1531" lon="1.95321">
        <ele>282</ele>
        <time>2011-12-23T15:15:06.000Z</time>
      </trkpt>
      <trkpt lat="45.1536" lon="1.95342">
        <ele>280</ele>
        <time>2011-12-23T15:15:11.000Z</time>
      </trkpt>
      <trkpt lat="45.1541" lon="1.95353">
        <ele>280</ele>
        <time>2011-12-23T15:15:18.000Z</time>
      </trkpt>
      <trkpt lat="45.1545" lon="1.95386">
        <ele>278</ele>
        <time>2011-12-23T15:15:25.000Z</time>
      </trkpt>
      <trkpt lat="45.1549" lon="1.95424">
        <ele>280</ele>
        <time>2011-12-23T15:15:34.000Z</time>
      </trkpt>
      <trkpt lat="45.1552" lon="1.95471">
        <ele>285</ele>
        <time>2011-12-23T15:15:46.000Z</time>
      </trkpt>
      <trkpt lat="45.1557" lon="1.95505">
        <ele>305</ele>
        <time>2011-12-23T15:15:58.000Z</time>
      </trkpt>
      <trkpt lat="45.1561" lon="1.95546">
        <ele>302</ele>
        <time>2011-12-23T15:16:06.000Z</time>
      </trkpt>
      <trkpt lat="45.1565" lon="1.95548">
        <ele>298</ele>
        <time>2011-12-23T15:16:15.000Z</time>
      </trkpt>
      <trkpt lat="45.157" lon="1.95537">
        <ele>300</ele>
        <time>2011-12-23T15:16:23.000Z</time>
      </trkpt>
      <trkpt lat="45.1575" lon="1.95528">
        <ele>303</ele>
        <time>2011-12-23T15:16:30.000Z</time>
      </trkpt>
      <trkpt lat="45.158" lon="1.95519">
        <ele>297</ele>
        <time>2011-12-23T15:16:38.000Z</time>
      </trkpt>
      <trkpt lat="45.1584" lon="1.95518">
        <ele>294</ele>
        <time>2011-12-23T15:16:44.000Z</time>
      </trkpt>
      <trkpt lat="45.1589" lon="1.95512">
        <ele>293</ele>
        <time>2011-12-23T15:16:50.000Z</time>
      </trkpt>
      <trkpt lat="45.1594" lon="1.95504">
        <ele>293</ele>
        <time>2011-12-23T15:16:58.000Z</time>
      </trkpt>
      <trkpt lat="45.1599" lon="1.95485">
        <ele>292</ele>
        <time>2011-12-23T15:17:06.000Z</time>
      </trkpt>
      <trkpt lat="45.1604" lon="1.95464">
        <ele>292</ele>
        <time>2011-12-23T15:17:14.000Z</time>
      </trkpt>
      <trkpt lat="45.1608" lon="1.95433">
        <ele>294</ele>
        <time>2011-12-23T15:17:23.000Z</time>
      </trkpt>
      <trkpt lat="45.1611" lon="1.95383">
        <ele>287</ele>
        <time>2011-12-23T15:17:36.000Z</time>
      </trkpt>
      <trkpt lat="45.1611" lon="1.95317">
        <ele>286</ele>
        <time>2011-12-23T15:17:49.000Z</time>
      </trkpt>
      <trkpt lat="45.1615" lon="1.95285">
        <ele>299</ele>
        <time>2011-12-23T15:18:04.000Z</time>
      </trkpt>
      <trkpt lat="45.1619" lon="1.95251">
        <ele>312</ele>
        <time>2011-12-23T15:18:17.000Z</time>
      </trkpt>
      <trkpt lat="45.1624" lon="1.95229">
        <ele>318</ele>
        <time>2011-12-23T15:18:28.000Z</time>
      </trkpt>
      <trkpt lat="45.1628" lon="1.95201">
        <ele>322</ele>
        <time>2011-12-23T15:18:38.000Z</time>
      </trkpt>
      <trkpt lat="45.1633" lon="1.9519">
        <ele>313</ele>
        <time>2011-12-23T15:18:46.000Z</time>
      </trkpt>
      <trkpt lat="45.1636" lon="1.9514">
        <ele>315</ele>
        <time>2011-12-23T15:18:56.000Z</time>
      </trkpt>
      <trkpt lat="45.1639" lon="1.95096">
        <ele>312</ele>
        <time>2011-12-23T15:19:10.000Z</time>
      </trkpt>
      <trkpt lat="45.1644" lon="1.95101">
        <ele>312</ele>
        <time>2011-12-23T15:19:23.000Z</time>
      </trkpt>
      <trkpt lat="45.1649" lon="1.95127">
        <ele>310</ele>
        <time>2011-12-23T15:19:34.000Z</time>
      </trkpt>
      <trkpt lat="45.1652" lon="1.95183">
        <ele>314</ele>
        <time>2011-12-23T15:19:42.000Z</time>
      </trkpt>
      <trkpt lat="45.1653" lon="1.95259">
        <ele>319</ele>
        <time>2011-12-23T15:19:54.000Z</time>
      </trkpt>
      <trkpt lat="45.1653" lon="1.95324">
        <ele>321</ele>
        <time>2011-12-23T15:20:06.000Z</time>
      </trkpt>
      <trkpt lat="45.1656" lon="1.95388">
        <ele>326</ele>
        <time>2011-12-23T15:20:17.000Z</time>
      </trkpt>
      <trkpt lat="45.1659" lon="1.95433">
        <ele>323</ele>
        <time>2011-12-23T15:20:25.000Z</time>
      </trkpt>
      <trkpt lat="45.1664" lon="1.9546">
        <ele>312</ele>
        <time>2011-12-23T15:20:33.000Z</time>
      </trkpt>
      <trkpt lat="45.1667" lon="1.95409">
        <ele>318</ele>
        <time>2011-12-23T15:20:51.000Z</time>
      </trkpt>
      <trkpt lat="45.1667" lon="1.95343">
        <ele>316</ele>
        <time>2011-12-23T15:21:03.000Z</time>
      </trkpt>
      <trkpt lat="45.1667" lon="1.95279">
        <ele>319</ele>
        <time>2011-12-23T15:21:13.000Z</time>
      </trkpt>
      <trkpt lat="45.1667" lon="1.95213">
        <ele>322</ele>
        <time>2011-12-23T15:21:29.000Z</time>
      </trkpt>
      <trkpt lat="45.1671" lon="1.95169">
        <ele>338</ele>
        <time>2011-12-23T15:21:44.000Z</time>
      </trkpt>
      <trkpt lat="45.1674" lon="1.95116">
        <ele>343</ele>
        <time>2011-12-23T15:21:55.000Z</time>
      </trkpt>
      <trkpt lat="45.1677" lon="1.95067">
        <ele>336</ele>
        <time>2011-12-23T15:22:07.000Z</time>
      </trkpt>
      <trkpt lat="45.1682" lon="1.9508">
        <ele>322</ele>
        <time>2011-12-23T15:22:19.000Z</time>
      </trkpt>
      <trkpt lat="45.1687" lon="1.95124">
        <ele>319</ele>
        <time>2011-12-23T15:22:27.000Z</time>
      </trkpt>
      <trkpt lat="45.1689" lon="1.95181">
        <ele>315</ele>
        <time>2011-12-23T15:22:39.000Z</time>
      </trkpt>
      <trkpt lat="45.1691" lon="1.95242">
        <ele>314</ele>
        <time>2011-12-23T15:22:57.000Z</time>
      </trkpt>
      <trkpt lat="45.1692" lon="1.95306">
        <ele>317</ele>
        <time>2011-12-23T15:23:16.000Z</time>
      </trkpt>
      <trkpt lat="45.1695" lon="1.95355">
        <ele>321</ele>
        <time>2011-12-23T15:23:35.000Z</time>
      </trkpt>
      <trkpt lat="45.1699" lon="1.95328">
        <ele>320</ele>
        <time>2011-12-23T15:23:53.000Z</time>
      </trkpt>
      <trkpt lat="45.1703" lon="1.95292">
        <ele>324</ele>
        <time>2011-12-23T15:24:11.000Z</time>
      </trkpt>
      <trkpt lat="45.1707" lon="1.95249">
        <ele>331</ele>
        <time>2011-12-23T15:24:32.000Z</time>
      </trkpt>
      <trkpt lat="45.1711" lon="1.95218">
        <ele>338</ele>
        <time>2011-12-23T15:24:55.000Z</time>
      </trkpt>
      <trkpt lat="45.1716" lon="1.95222">
        <ele>341</ele>
        <time>2011-12-23T15:25:14.000Z</time>
      </trkpt>
      <trkpt lat="45.172" lon="1.95249">
        <ele>345</ele>
        <time>2011-12-23T15:25:32.000Z</time>
      </trkpt>
      <trkpt lat="45.1724" lon="1.95281">
        <ele>348</ele>
        <time>2011-12-23T15:25:50.000Z</time>
      </trkpt>
      <trkpt lat="45.1728" lon="1.95324">
        <ele>350</ele>
        <time>2011-12-23T15:26:08.000Z</time>
      </trkpt>
      <trkpt lat="45.173" lon="1.95378">
        <ele>353</ele>
        <time>2011-12-23T15:26:24.000Z</time>
      </trkpt>
      <trkpt lat="45.1732" lon="1.9544">
        <ele>365</ele>
        <time>2011-12-23T15:26:40.000Z</time>
      </trkpt>
      <trkpt lat="45.173" lon="1.95499">
        <ele>370</ele>
        <time>2011-12-23T15:26:58.000Z</time>
      </trkpt>
      <trkpt lat="45.173" lon="1.95565">
        <ele>366</ele>
        <time>2011-12-23T15:27:14.000Z</time>
      </trkpt>
      <trkpt lat="45.1734" lon="1.95593">
        <ele>362</ele>
        <time>2011-12-23T15:27:34.000Z</time>
      </trkpt>
      <trkpt lat="45.1738" lon="1.95618">
        <ele>370</ele>
        <time>2011-12-23T15:27:53.000Z</time>
      </trkpt>
      <trkpt lat="45.1742" lon="1.95662">
        <ele>375</ele>
        <time>2011-12-23T15:28:12.000Z</time>
      </trkpt>
      <trkpt lat="45.1745" lon="1.95713">
        <ele>378</ele>
        <time>2011-12-23T15:28:30.000Z</time>
      </trkpt>
      <trkpt lat="45.1748" lon="1.95764">
        <ele>381</ele>
        <time>2011-12-23T15:28:52.000Z</time>
      </trkpt>
      <trkpt lat="45.1751" lon="1.95817">
        <ele>383</ele>
        <time>2011-12-23T15:29:06.000Z</time>
      </trkpt>
      <trkpt lat="45.1753" lon="1.95882">
        <ele>371</ele>
        <time>2011-12-23T15:29:26.000Z</time>
      </trkpt>
      <trkpt lat="45.1757" lon="1.959">
        <ele>377</ele>
        <time>2011-12-23T15:29:42.000Z</time>
      </trkpt>
      <trkpt lat="45.1761" lon="1.95856">
        <ele>380</ele>
        <time>2011-12-23T15:30:03.000Z</time>
      </trkpt>
      <trkpt lat="45.1765" lon="1.95821">
        <ele>390</ele>
        <time>2011-12-23T15:30:24.000Z</time>
      </trkpt>
      <trkpt lat="45.1769" lon="1.95798">
        <ele>399</ele>
        <time>2011-12-23T15:30:39.000Z</time>
      </trkpt>
      <trkpt lat="45.1772" lon="1.95755">
        <ele>402</ele>
        <time>2011-12-23T15:30:56.000Z</time>
      </trkpt>
      <trkpt lat="45.1776" lon="1.95719">
        <ele>404</ele>
        <time>2011-12-23T15:31:12.000Z</time>
      </trkpt>
      <trkpt lat="45.178" lon="1.95679">
        <ele>409</ele>
        <time>2011-12-23T15:31:32.000Z</time>
      </trkpt>
      <trkpt lat="45.1783" lon="1.95629">
        <ele>415</ele>
        <time>2011-12-23T15:31:49.000Z</time>
      </trkpt>
      <trkpt lat="45.1787" lon="1.95586">
        <ele>412</ele>
        <time>2011-12-23T15:32:07.000Z</time>
      </trkpt>
      <trkpt lat="45.1787" lon="1.95519">
        <ele>408</ele>
        <time>2011-12-23T15:32:28.000Z</time>
      </trkpt>
      <trkpt lat="45.1785" lon="1.95458">
        <ele>416</ele>
        <time>2011-12-23T15:32:49.000Z</time>
      </trkpt>
      <trkpt lat="45.1782" lon="1.95411">
        <ele>417</ele>
        <time>2011-12-23T15:33:07.000Z</time>
      </trkpt>
      <trkpt lat="45.1779" lon="1.95362">
        <ele>426</ele>
        <time>2011-12-23T15:33:26.000Z</time>
      </trkpt>
      <trkpt lat="45.1779" lon="1.95294">
        <ele>428</ele>
        <time>2011-12-23T15:33:46.000Z</time>
      </trkpt>
      <trkpt lat="45.1779" lon="1.95228">
        <ele>431</ele>
        <time>2011-12-23T15:34:04.000Z</time>
      </trkpt>
      <trkpt lat="45.1782" lon="1.95171">
        <ele>441</ele>
        <time>2011-12-23T15:34:25.000Z</time>
      </trkpt>
      <trkpt lat="45.1785" lon="1.95121">
        <ele>441</ele>
        <time>2011-12-23T15:34:43.000Z</time>
      </trkpt>
      <trkpt lat="45.1788" lon="1.95074">
        <ele>448</ele>
        <time>2011-12-23T15:35:02.000Z</time>
      </trkpt>
      <trkpt lat="45.1792" lon="1.95031">
        <ele>450</ele>
        <time>2011-12-23T15:35:24.000Z</time>
      </trkpt>
      <trkpt lat="45.1795" lon="1.94987">
        <ele>457</ele>
        <time>2011-12-23T15:35:46.000Z</time>
      </trkpt>
      <trkpt lat="45.18" lon="1.94986">
        <ele>465</ele>
        <time>2011-12-23T15:36:04.000Z</time>
      </trkpt>
      <trkpt lat="45.1804" lon="1.94962">
        <ele>467</ele>
        <time>2011-12-23T15:36:24.000Z</time>
      </trkpt>
      <trkpt lat="45.1809" lon="1.94948">
        <ele>477</ele>
        <time>2011-12-23T15:36:44.000Z</time>
      </trkpt>
      <trkpt lat="45.1813" lon="1.94928">
        <ele>473</ele>
        <time>2011-12-23T15:36:54.000Z</time>
      </trkpt>
      <trkpt lat="45.1815" lon="1.94868">
        <ele>465</ele>
        <time>2011-12-23T15:37:10.000Z</time>
      </trkpt>
      <trkpt lat="45.1817" lon="1.94812">
        <ele>459</ele>
        <time>2011-12-23T15:37:22.000Z</time>
      </trkpt>
      <trkpt lat="45.1822" lon="1.94793">
        <ele>456</ele>
        <time>2011-12-23T15:37:35.000Z</time>
      </trkpt>
      <trkpt lat="45.1826" lon="1.94828">
        <ele>463</ele>
        <time>2011-12-23T15:37:57.000Z</time>
      </trkpt>
      <trkpt lat="45.1829" lon="1.94884">
        <ele>460</ele>
        <time>2011-12-23T15:38:17.000Z</time>
      </trkpt>
      <trkpt lat="45.1833" lon="1.9491">
        <ele>463</ele>
        <time>2011-12-23T15:38:33.000Z</time>
      </trkpt>
      <trkpt lat="45.1837" lon="1.94894">
        <ele>463</ele>
        <time>2011-12-23T15:38:50.000Z</time>
      </trkpt>
      <trkpt lat="45.1842" lon="1.94881">
        <ele>467</ele>
        <time>2011-12-23T15:39:11.000Z</time>
      </trkpt>
      <trkpt lat="45.1846" lon="1.94842">
        <ele>471</ele>
        <time>2011-12-23T15:39:29.000Z</time>
      </trkpt>
      <trkpt lat="45.1848" lon="1.94784">
        <ele>475</ele>
        <time>2011-12-23T15:39:45.000Z</time>
      </trkpt>
      <trkpt lat="45.1851" lon="1.94737">
        <ele>474</ele>
        <time>2011-12-23T15:39:52.000Z</time>
      </trkpt>
      <trkpt lat="45.1856" lon="1.94704">
        <ele>471</ele>
        <time>2011-12-23T15:39:59.000Z</time>
      </trkpt>
      <trkpt lat="45.1855" lon="1.94641">
        <ele>477</ele>
        <time>2011-12-23T15:40:25.000Z</time>
      </trkpt>
      <trkpt lat="45.1851" lon="1.94667">
        <ele>499</ele>
        <time>2011-12-23T15:40:49.000Z</time>
      </trkpt>
      <trkpt lat="45.1846" lon="1.94656">
        <ele>491</ele>
        <time>2011-12-23T15:40:59.000Z</time>
      </trkpt>
      <trkpt lat="45.1843" lon="1.94604">
        <ele>485</ele>
        <time>2011-12-23T15:41:11.000Z</time>
      </trkpt>
      <trkpt lat="45.1838" lon="1.94612">
        <ele>489</ele>
        <time>2011-12-23T15:41:27.000Z</time>
      </trkpt>
      <trkpt lat="45.1834" lon="1.94572">
        <ele>492</ele>
        <time>2011-12-23T15:41:43.000Z</time>
      </trkpt>
      <trkpt lat="45.183" lon="1.94585">
        <ele>505</ele>
        <time>2011-12-23T15:42:13.000Z</time>
      </trkpt>
      <trkpt lat="45.1825" lon="1.94603">
        <ele>512</ele>
        <time>2011-12-23T15:42:27.000Z</time>
      </trkpt>
      <trkpt lat="45.1821" lon="1.94602">
        <ele>496</ele>
        <time>2011-12-23T15:42:43.000Z</time>
      </trkpt>
      <trkpt lat="45.1817" lon="1.94643">
        <ele>502</ele>
        <time>2011-12-23T15:43:01.000Z</time>
      </trkpt>
      <trkpt lat="45.1812" lon="1.94645">
        <ele>500</ele>
        <time>2011-12-23T15:43:11.000Z</time>
      </trkpt>
      <trkpt lat="45.1809" lon="1.94596">
        <ele>504</ele>
        <time>2011-12-23T15:43:29.000Z</time>
      </trkpt>
      <trkpt lat="45.1806" lon="1.94544">
        <ele>504</ele>
        <time>2011-12-23T15:43:46.000Z</time>
      </trkpt>
      <trkpt lat="45.1802" lon="1.94545">
        <ele>515</ele>
        <time>2011-12-23T15:44:09.000Z</time>
      </trkpt>
      <trkpt lat="45.1797" lon="1.94571">
        <ele>515</ele>
        <time>2011-12-23T15:44:30.000Z</time>
      </trkpt>
      <trkpt lat="45.1799" lon="1.94513">
        <ele>513</ele>
        <time>2011-12-23T15:45:06.000Z</time>
      </trkpt>
      <trkpt lat="45.1802" lon="1.94466">
        <ele>525</ele>
        <time>2011-12-23T15:45:26.000Z</time>
      </trkpt>
      <trkpt lat="45.1805" lon="1.9441">
        <ele>524</ele>
        <time>2011-12-23T15:45:42.000Z</time>
      </trkpt>
      <trkpt lat="45.181" lon="1.94385">
        <ele>522</ele>
        <time>2011-12-23T15:45:58.000Z</time>
      </trkpt>
      <trkpt lat="45.1813" lon="1.94335">
        <ele>528</ele>
        <time>2011-12-23T15:46:15.000Z</time>
      </trkpt>
      <trkpt lat="45.1816" lon="1.9428">
        <ele>529</ele>
        <time>2011-12-23T15:46:30.000Z</time>
      </trkpt>
      <trkpt lat="45.1819" lon="1.94229">
        <ele>526</ele>
        <time>2011-12-23T15:46:42.000Z</time>
      </trkpt>
      <trkpt lat="45.1822" lon="1.94183">
        <ele>527</ele>
        <time>2011-12-23T15:46:54.000Z</time>
      </trkpt>
      <trkpt lat="45.1826" lon="1.94137">
        <ele>526</ele>
        <time>2011-12-23T15:47:06.000Z</time>
      </trkpt>
      <trkpt lat="45.1829" lon="1.94079">
        <ele>527</ele>
        <time>2011-12-23T15:47:18.000Z</time>
      </trkpt>
      <trkpt lat="45.1832" lon="1.94026">
        <ele>529</ele>
        <time>2011-12-23T15:47:30.000Z</time>
      </trkpt>
      <trkpt lat="45.1834" lon="1.9397">
        <ele>534</ele>
        <time>2011-12-23T15:47:42.000Z</time>
      </trkpt>
      <trkpt lat="45.1835" lon="1.93905">
        <ele>538</ele>
        <time>2011-12-23T15:47:57.000Z</time>
      </trkpt>
      <trkpt lat="45.1835" lon="1.93838">
        <ele>542</ele>
        <time>2011-12-23T15:48:10.000Z</time>
      </trkpt>
      <trkpt lat="45.1838" lon="1.93794">
        <ele>544</ele>
        <time>2011-12-23T15:48:28.000Z</time>
      </trkpt>
      <trkpt lat="45.1843" lon="1.93786">
        <ele>543</ele>
        <time>2011-12-23T15:48:43.000Z</time>
      </trkpt>
      <trkpt lat="45.1847" lon="1.93769">
        <ele>548</ele>
        <time>2011-12-23T15:48:59.000Z</time>
      </trkpt>
      <trkpt lat="45.1852" lon="1.93762">
        <ele>549</ele>
        <time>2011-12-23T15:49:11.000Z</time>
      </trkpt>
      <trkpt lat="45.1856" lon="1.93741">
        <ele>553</ele>
        <time>2011-12-23T15:49:25.000Z</time>
      </trkpt>
      <trkpt lat="45.186" lon="1.93698">
        <ele>555</ele>
        <time>2011-12-23T15:49:38.000Z</time>
      </trkpt>
      <trkpt lat="45.1865" lon="1.93653">
        <ele>553</ele>
        <time>2011-12-23T15:49:52.000Z</time>
      </trkpt>
      <trkpt lat="45.1869" lon="1.93597">
        <ele>553</ele>
        <time>2011-12-23T15:50:00.000Z</time>
      </trkpt>
      <trkpt lat="45.1872" lon="1.93537">
        <ele>550</ele>
        <time>2011-12-23T15:50:08.000Z</time>
      </trkpt>
      <trkpt lat="45.1876" lon="1.93499">
        <ele>548</ele>
        <time>2011-12-23T15:50:16.000Z</time>
      </trkpt>
      <trkpt lat="45.188" lon="1.93463">
        <ele>550</ele>
        <time>2011-12-23T15:50:25.000Z</time>
      </trkpt>
      <trkpt lat="45.1883" lon="1.93413">
        <ele>551</ele>
        <time>2011-12-23T15:50:34.000Z</time>
      </trkpt>
      <trkpt lat="45.1885" lon="1.93354">
        <ele>554</ele>
        <time>2011-12-23T15:50:45.000Z</time>
      </trkpt>
      <trkpt lat="45.1886" lon="1.93292">
        <ele>563</ele>
        <time>2011-12-23T15:51:01.000Z</time>
      </trkpt>
      <trkpt lat="45.1887" lon="1.93227">
        <ele>572</ele>
        <time>2011-12-23T15:51:13.000Z</time>
      </trkpt>
      <trkpt lat="45.1887" lon="1.93161">
        <ele>576</ele>
        <time>2011-12-23T15:51:25.000Z</time>
      </trkpt>
      <trkpt lat="45.1889" lon="1.93106">
        <ele>573</ele>
        <time>2011-12-23T15:51:38.000Z</time>
      </trkpt>
      <trkpt lat="45.1894" lon="1.93087">
        <ele>567</ele>
        <time>2011-12-23T15:51:49.000Z</time>
      </trkpt>
      <trkpt lat="45.1897" lon="1.93031">
        <ele>565</ele>
        <time>2011-12-23T15:52:01.000Z</time>
      </trkpt>
      <trkpt lat="45.1899" lon="1.92974">
        <ele>569</ele>
        <time>2011-12-23T15:52:14.000Z</time>
      </trkpt>
      <trkpt lat="45.1901" lon="1.92918">
        <ele>572</ele>
        <time>2011-12-23T15:52:30.000Z</time>
      </trkpt>
      <trkpt lat="45.1906" lon="1.92887">
        <ele>572</ele>
        <time>2011-12-23T15:52:41.000Z</time>
      </trkpt>
      <trkpt lat="45.1911" lon="1.92891">
        <ele>577</ele>
        <time>2011-12-23T15:52:51.000Z</time>
      </trkpt>
      <trkpt lat="45.1916" lon="1.92898">
        <ele>581</ele>
        <time>2011-12-23T15:52:58.000Z</time>
      </trkpt>
      <trkpt lat="45.1921" lon="1.92891">
        <ele>571</ele>
        <time>2011-12-23T15:53:06.000Z</time>
      </trkpt>
      <trkpt lat="45.1926" lon="1.92846">
        <ele>572</ele>
        <time>2011-12-23T15:53:13.000Z</time>
      </trkpt>
      <trkpt lat="45.193" lon="1.92807">
        <ele>565</ele>
        <time>2011-12-23T15:53:18.000Z</time>
      </trkpt>
      <trkpt lat="45.1936" lon="1.92773">
        <ele>564</ele>
        <time>2011-12-23T15:53:23.000Z</time>
      </trkpt>
      <trkpt lat="45.1941" lon="1.92751">
        <ele>558</ele>
        <time>2011-12-23T15:53:28.000Z</time>
      </trkpt>
      <trkpt lat="45.1946" lon="1.92745">
        <ele>549</ele>
        <time>2011-12-23T15:53:32.000Z</time>
      </trkpt>
      <trkpt lat="45.195" lon="1.92721">
        <ele>548</ele>
        <time>2011-12-23T15:53:39.000Z</time>
      </trkpt>
      <trkpt lat="45.1955" lon="1.92708">
        <ele>555</ele>
        <time>2011-12-23T15:53:54.000Z</time>
      </trkpt>
      <trkpt lat="45.1959" lon="1.92699">
        <ele>559</ele>
        <time>2011-12-23T15:54:03.000Z</time>
      </trkpt>
      <trkpt lat="45.1964" lon="1.92685">
        <ele>560</ele>
        <time>2011-12-23T15:54:13.000Z</time>
      </trkpt>
      <trkpt lat="45.1968" lon="1.92687">
        <ele>561</ele>
        <time>2011-12-23T15:54:22.000Z</time>
      </trkpt>
      <trkpt lat="45.1972" lon="1.92728">
        <ele>567</ele>
        <time>2011-12-23T15:54:33.000Z</time>
      </trkpt>
      <trkpt lat="45.1977" lon="1.9277">
        <ele>558</ele>
        <time>2011-12-23T15:54:41.000Z</time>
      </trkpt>
      <trkpt lat="45.1982" lon="1.928">
        <ele>562</ele>
        <time>2011-12-23T15:54:47.000Z</time>
      </trkpt>
      <trkpt lat="45.1985" lon="1.92848">
        <ele>565</ele>
        <time>2011-12-23T15:54:51.000Z</time>
      </trkpt>
      <trkpt lat="45.1988" lon="1.92906">
        <ele>565</ele>
        <time>2011-12-23T15:54:56.000Z</time>
      </trkpt>
      <trkpt lat="45.1991" lon="1.92957">
        <ele>565</ele>
        <time>2011-12-23T15:55:03.000Z</time>
      </trkpt>
      <trkpt lat="45.1994" lon="1.93013">
        <ele>565</ele>
        <time>2011-12-23T15:55:11.000Z</time>
      </trkpt>
      <trkpt lat="45.1994" lon="1.93079">
        <ele>562</ele>
        <time>2011-12-23T15:55:20.000Z</time>
      </trkpt>
      <trkpt lat="45.1994" lon="1.93146">
        <ele>553</ele>
        <time>2011-12-23T15:55:35.000Z</time>
      </trkpt>
      <trkpt lat="45.1998" lon="1.93156">
        <ele>553</ele>
        <time>2011-12-23T15:55:50.000Z</time>
      </trkpt>
      <trkpt lat="45.2003" lon="1.93179">
        <ele>553</ele>
        <time>2011-12-23T15:56:04.000Z</time>
      </trkpt>
      <trkpt lat="45.2008" lon="1.93189">
        <ele>552</ele>
        <time>2011-12-23T15:56:16.000Z</time>
      </trkpt>
      <trkpt lat="45.2012" lon="1.93166">
        <ele>553</ele>
        <time>2011-12-23T15:56:26.000Z</time>
      </trkpt>
      <trkpt lat="45.2017" lon="1.93143">
        <ele>551</ele>
        <time>2011-12-23T15:56:36.000Z</time>
      </trkpt>
      <trkpt lat="45.2022" lon="1.93141">
        <ele>552</ele>
        <time>2011-12-23T15:56:46.000Z</time>
      </trkpt>
      <trkpt lat="45.2026" lon="1.93131">
        <ele>554</ele>
        <time>2011-12-23T15:56:58.000Z</time>
      </trkpt>
      <trkpt lat="45.2031" lon="1.9312">
        <ele>557</ele>
        <time>2011-12-23T15:57:11.000Z</time>
      </trkpt>
      <trkpt lat="45.2035" lon="1.93122">
        <ele>565</ele>
        <time>2011-12-23T15:57:26.000Z</time>
      </trkpt>
      <trkpt lat="45.204" lon="1.93119">
        <ele>575</ele>
        <time>2011-12-23T15:57:41.000Z</time>
      </trkpt>
      <trkpt lat="45.2044" lon="1.93141">
        <ele>574</ele>
        <time>2011-12-23T15:57:52.000Z</time>
      </trkpt>
      <trkpt lat="45.2049" lon="1.93155">
        <ele>579</ele>
        <time>2011-12-23T15:58:05.000Z</time>
      </trkpt>
      <trkpt lat="45.2054" lon="1.93141">
        <ele>579</ele>
        <time>2011-12-23T15:58:16.000Z</time>
      </trkpt>
      <trkpt lat="45.2059" lon="1.93115">
        <ele>582</ele>
        <time>2011-12-23T15:58:31.000Z</time>
      </trkpt>
      <trkpt lat="45.2062" lon="1.93076">
        <ele>588</ele>
        <time>2011-12-23T15:58:46.000Z</time>
      </trkpt>
      <trkpt lat="45.2066" lon="1.93035">
        <ele>591</ele>
        <time>2011-12-23T15:58:58.000Z</time>
      </trkpt>
      <trkpt lat="45.2071" lon="1.93005">
        <ele>594</ele>
        <time>2011-12-23T15:59:09.000Z</time>
      </trkpt>
      <trkpt lat="45.2075" lon="1.92966">
        <ele>593</ele>
        <time>2011-12-23T15:59:21.000Z</time>
      </trkpt>
      <trkpt lat="45.2078" lon="1.92932">
        <ele>593</ele>
        <time>2011-12-23T15:59:29.000Z</time>
      </trkpt>
      <trkpt lat="45.2083" lon="1.92895">
        <ele>588</ele>
        <time>2011-12-23T15:59:35.000Z</time>
      </trkpt>
      <trkpt lat="45.2088" lon="1.92876">
        <ele>587</ele>
        <time>2011-12-23T15:59:43.000Z</time>
      </trkpt>
      <trkpt lat="45.2092" lon="1.92856">
        <ele>589</ele>
        <time>2011-12-23T15:59:51.000Z</time>
      </trkpt>
      <trkpt lat="45.2097" lon="1.92841">
        <ele>591</ele>
        <time>2011-12-23T16:00:01.000Z</time>
      </trkpt>
      <trkpt lat="45.2102" lon="1.92837">
        <ele>590</ele>
        <time>2011-12-23T16:00:15.000Z</time>
      </trkpt>
      <trkpt lat="45.2103" lon="1.92772">
        <ele>601</ele>
        <time>2011-12-23T16:00:32.000Z</time>
      </trkpt>
      <trkpt lat="45.2106" lon="1.92717">
        <ele>608</ele>
        <time>2011-12-23T16:00:42.000Z</time>
      </trkpt>
      <trkpt lat="45.2108" lon="1.92657">
        <ele>605</ele>
        <time>2011-12-23T16:00:50.000Z</time>
      </trkpt>
      <trkpt lat="45.2109" lon="1.92596">
        <ele>603</ele>
        <time>2011-12-23T16:00:59.000Z</time>
      </trkpt>
      <trkpt lat="45.2111" lon="1.92523">
        <ele>603</ele>
        <time>2011-12-23T16:01:10.000Z</time>
      </trkpt>
      <trkpt lat="45.2112" lon="1.92455">
        <ele>605</ele>
        <time>2011-12-23T16:01:19.000Z</time>
      </trkpt>
      <trkpt lat="45.2114" lon="1.92389">
        <ele>601</ele>
        <time>2011-12-23T16:01:27.000Z</time>
      </trkpt>
      <trkpt lat="45.2115" lon="1.92324">
        <ele>596</ele>
        <time>2011-12-23T16:01:35.000Z</time>
      </trkpt>
      <trkpt lat="45.2116" lon="1.92255">
        <ele>591</ele>
        <time>2011-12-23T16:01:44.000Z</time>
      </trkpt>
      <trkpt lat="45.2116" lon="1.9219">
        <ele>594</ele>
        <time>2011-12-23T16:01:55.000Z</time>
      </trkpt>
      <trkpt lat="45.2115" lon="1.92123">
        <ele>594</ele>
        <time>2011-12-23T16:02:03.000Z</time>
      </trkpt>
      <trkpt lat="45.2115" lon="1.9205">
        <ele>593</ele>
        <time>2011-12-23T16:02:10.000Z</time>
      </trkpt>
      <trkpt lat="45.2116" lon="1.91984">
        <ele>589</ele>
        <time>2011-12-23T16:02:18.000Z</time>
      </trkpt>
      <trkpt lat="45.2121" lon="1.92008">
        <ele>593</ele>
        <time>2011-12-23T16:02:30.000Z</time>
      </trkpt>
      <trkpt lat="45.2124" lon="1.9207">
        <ele>595</ele>
        <time>2011-12-23T16:02:40.000Z</time>
      </trkpt>
      <trkpt lat="45.2126" lon="1.92127">
        <ele>596</ele>
        <time>2011-12-23T16:02:49.000Z</time>
      </trkpt>
      <trkpt lat="45.2129" lon="1.92184">
        <ele>609</ele>
        <time>2011-12-23T16:03:05.000Z</time>
      </trkpt>
      <trkpt lat="45.2131" lon="1.92249">
        <ele>618</ele>
        <time>2011-12-23T16:03:12.000Z</time>
      </trkpt>
      <trkpt lat="45.2133" lon="1.92319">
        <ele>620</ele>
        <time>2011-12-23T16:03:20.000Z</time>
      </trkpt>
      <trkpt lat="45.2136" lon="1.92379">
        <ele>620</ele>
        <time>2011-12-23T16:03:29.000Z</time>
      </trkpt>
      <trkpt lat="45.2139" lon="1.9243">
        <ele>618</ele>
        <time>2011-12-23T16:03:37.000Z</time>
      </trkpt>
      <trkpt lat="45.2142" lon="1.92476">
        <ele>612</ele>
        <time>2011-12-23T16:03:45.000Z</time>
      </trkpt>
      <trkpt lat="45.2147" lon="1.92498">
        <ele>612</ele>
        <time>2011-12-23T16:03:58.000Z</time>
      </trkpt>
      <trkpt lat="45.2152" lon="1.92541">
        <ele>613</ele>
        <time>2011-12-23T16:04:09.000Z</time>
      </trkpt>
      <trkpt lat="45.2157" lon="1.92572">
        <ele>617</ele>
        <time>2011-12-23T16:04:17.000Z</time>
      </trkpt>
      <trkpt lat="45.2161" lon="1.9259">
        <ele>618</ele>
        <time>2011-12-23T16:04:26.000Z</time>
      </trkpt>
      <trkpt lat="45.2167" lon="1.92615">
        <ele>607</ele>
        <time>2011-12-23T16:04:37.000Z</time>
      </trkpt>
      <trkpt lat="45.2172" lon="1.92624">
        <ele>600</ele>
        <time>2011-12-23T16:04:50.000Z</time>
      </trkpt>
      <trkpt lat="45.2177" lon="1.9262">
        <ele>602</ele>
        <time>2011-12-23T16:04:59.000Z</time>
      </trkpt>
      <trkpt lat="45.2182" lon="1.92626">
        <ele>604</ele>
        <time>2011-12-23T16:05:06.000Z</time>
      </trkpt>
      <trkpt lat="45.2187" lon="1.92606">
        <ele>609</ele>
        <time>2011-12-23T16:05:15.000Z</time>
      </trkpt>
      <trkpt lat="45.2191" lon="1.9263">
        <ele>608</ele>
        <time>2011-12-23T16:05:22.000Z</time>
      </trkpt>
      <trkpt lat="45.2196" lon="1.9266">
        <ele>606</ele>
        <time>2011-12-23T16:05:30.000Z</time>
      </trkpt>
      <trkpt lat="45.22" lon="1.92685">
        <ele>605</ele>
        <time>2011-12-23T16:05:37.000Z</time>
      </trkpt>
      <trkpt lat="45.2204" lon="1.92727">
        <ele>603</ele>
        <time>2011-12-23T16:05:45.000Z</time>
      </trkpt>
      <trkpt lat="45.2208" lon="1.92764">
        <ele>603</ele>
        <time>2011-12-23T16:05:54.000Z</time>
      </trkpt>
      <trkpt lat="45.2213" lon="1.92796">
        <ele>602</ele>
        <time>2011-12-23T16:06:03.000Z</time>
      </trkpt>
      <trkpt lat="45.2217" lon="1.92818">
        <ele>606</ele>
        <time>2011-12-23T16:06:13.000Z</time>
      </trkpt>
      <trkpt lat="45.222" lon="1.92873">
        <ele>605</ele>
        <time>2011-12-23T16:06:19.000Z</time>
      </trkpt>
      <trkpt lat="45.2223" lon="1.92925">
        <ele>605</ele>
        <time>2011-12-23T16:06:26.000Z</time>
      </trkpt>
      <trkpt lat="45.2225" lon="1.9299">
        <ele>604</ele>
        <time>2011-12-23T16:06:33.000Z</time>
      </trkpt>
      <trkpt lat="45.2228" lon="1.93042">
        <ele>604</ele>
        <time>2011-12-23T16:06:41.000Z</time>
      </trkpt>
      <trkpt lat="45.2232" lon="1.93083">
        <ele>604</ele>
        <time>2011-12-23T16:06:51.000Z</time>
      </trkpt>
      <trkpt lat="45.2236" lon="1.93117">
        <ele>609</ele>
        <time>2011-12-23T16:06:59.000Z</time>
      </trkpt>
      <trkpt lat="45.224" lon="1.93164">
        <ele>604</ele>
        <time>2011-12-23T16:07:05.000Z</time>
      </trkpt>
      <trkpt lat="45.2243" lon="1.93211">
        <ele>604</ele>
        <time>2011-12-23T16:07:13.000Z</time>
      </trkpt>
      <trkpt lat="45.2248" lon="1.93233">
        <ele>607</ele>
        <time>2011-12-23T16:07:24.000Z</time>
      </trkpt>
      <trkpt lat="45.2251" lon="1.93275">
        <ele>601</ele>
        <time>2011-12-23T16:07:31.000Z</time>
      </trkpt>
      <trkpt lat="45.2255" lon="1.93306">
        <ele>598</ele>
        <time>2011-12-23T16:07:38.000Z</time>
      </trkpt>
      <trkpt lat="45.226" lon="1.93322">
        <ele>599</ele>
        <time>2011-12-23T16:07:48.000Z</time>
      </trkpt>
      <trkpt lat="45.2265" lon="1.9335">
        <ele>600</ele>
        <time>2011-12-23T16:07:57.000Z</time>
      </trkpt>
      <trkpt lat="45.227" lon="1.93351">
        <ele>597</ele>
        <time>2011-12-23T16:08:10.000Z</time>
      </trkpt>
      <trkpt lat="45.2274" lon="1.93368">
        <ele>597</ele>
        <time>2011-12-23T16:08:17.000Z</time>
      </trkpt>
      <trkpt lat="45.2279" lon="1.93398">
        <ele>595</ele>
        <time>2011-12-23T16:08:22.000Z</time>
      </trkpt>
      <trkpt lat="45.2284" lon="1.934">
        <ele>596</ele>
        <time>2011-12-23T16:08:32.000Z</time>
      </trkpt>
      <trkpt lat="45.2288" lon="1.93414">
        <ele>602</ele>
        <time>2011-12-23T16:08:40.000Z</time>
      </trkpt>
      <trkpt lat="45.2293" lon="1.9342">
        <ele>610</ele>
        <time>2011-12-23T16:08:50.000Z</time>
      </trkpt>
      <trkpt lat="45.2298" lon="1.93434">
        <ele>611</ele>
        <time>2011-12-23T16:08:58.000Z</time>
      </trkpt>
      <trkpt lat="45.2302" lon="1.93456">
        <ele>607</ele>
        <time>2011-12-23T16:09:07.000Z</time>
      </trkpt>
      <trkpt lat="45.2308" lon="1.9347">
        <ele>608</ele>
        <time>2011-12-23T16:09:14.000Z</time>
      </trkpt>
      <trkpt lat="45.2312" lon="1.935">
        <ele>605</ele>
        <time>2011-12-23T16:09:20.000Z</time>
      </trkpt>
      <trkpt lat="45.2317" lon="1.93522">
        <ele>602</ele>
        <time>2011-12-23T16:09:28.000Z</time>
      </trkpt>
      <trkpt lat="45.2322" lon="1.93534">
        <ele>600</ele>
        <time>2011-12-23T16:09:36.000Z</time>
      </trkpt>
      <trkpt lat="45.2327" lon="1.93539">
        <ele>603</ele>
        <time>2011-12-23T16:09:46.000Z</time>
      </trkpt>
      <trkpt lat="45.2332" lon="1.93523">
        <ele>605</ele>
        <time>2011-12-23T16:09:55.000Z</time>
      </trkpt>
      <trkpt lat="45.2337" lon="1.93507">
        <ele>605</ele>
        <time>2011-12-23T16:10:03.000Z</time>
      </trkpt>
      <trkpt lat="45.2341" lon="1.93497">
        <ele>604</ele>
        <time>2011-12-23T16:10:10.000Z</time>
      </trkpt>
      <trkpt lat="45.2346" lon="1.93493">
        <ele>608</ele>
        <time>2011-12-23T16:10:17.000Z</time>
      </trkpt>
      <trkpt lat="45.235" lon="1.9352">
        <ele>610</ele>
        <time>2011-12-23T16:10:26.000Z</time>
      </trkpt>
      <trkpt lat="45.2354" lon="1.9357">
        <ele>611</ele>
        <time>2011-12-23T16:10:32.000Z</time>
      </trkpt>
      <trkpt lat="45.2357" lon="1.93631">
        <ele>610</ele>
        <time>2011-12-23T16:10:40.000Z</time>
      </trkpt>
      <trkpt lat="45.236" lon="1.93678">
        <ele>613</ele>
        <time>2011-12-23T16:10:50.000Z</time>
      </trkpt>
      <trkpt lat="45.2364" lon="1.93721">
        <ele>619</ele>
        <time>2011-12-23T16:11:00.000Z</time>
      </trkpt>
      <trkpt lat="45.2369" lon="1.93738">
        <ele>629</ele>
        <time>2011-12-23T16:11:11.000Z</time>
      </trkpt>
      <trkpt lat="45.2374" lon="1.9376">
        <ele>635</ele>
        <time>2011-12-23T16:11:19.000Z</time>
      </trkpt>
      <trkpt lat="45.2379" lon="1.93772">
        <ele>640</ele>
        <time>2011-12-23T16:11:28.000Z</time>
      </trkpt>
      <trkpt lat="45.2383" lon="1.93789">
        <ele>633</ele>
        <time>2011-12-23T16:11:38.000Z</time>
      </trkpt>
      <trkpt lat="45.2388" lon="1.9379">
        <ele>632</ele>
        <time>2011-12-23T16:11:46.000Z</time>
      </trkpt>
      <trkpt lat="45.2392" lon="1.93833">
        <ele>634</ele>
        <time>2011-12-23T16:11:51.000Z</time>
      </trkpt>
      <trkpt lat="45.2393" lon="1.93895">
        <ele>630</ele>
        <time>2011-12-23T16:11:57.000Z</time>
      </trkpt>
      <trkpt lat="45.2395" lon="1.93958">
        <ele>626</ele>
        <time>2011-12-23T16:12:04.000Z</time>
      </trkpt>
      <trkpt lat="45.2398" lon="1.94009">
        <ele>625</ele>
        <time>2011-12-23T16:12:12.000Z</time>
      </trkpt>
      <trkpt lat="45.24" lon="1.94066">
        <ele>621</ele>
        <time>2011-12-23T16:12:19.000Z</time>
      </trkpt>
      <trkpt lat="45.2403" lon="1.94123">
        <ele>623</ele>
        <time>2011-12-23T16:12:26.000Z</time>
      </trkpt>
      <trkpt lat="45.2406" lon="1.94159">
        <ele>618</ele>
        <time>2011-12-23T16:12:35.000Z</time>
      </trkpt>
      <trkpt lat="45.2411" lon="1.94164">
        <ele>629</ele>
        <time>2011-12-23T16:12:48.000Z</time>
      </trkpt>
      <trkpt lat="45.2417" lon="1.94191">
        <ele>624</ele>
        <time>2011-12-23T16:12:59.000Z</time>
      </trkpt>
      <trkpt lat="45.2421" lon="1.9421">
        <ele>625</ele>
        <time>2011-12-23T16:13:08.000Z</time>
      </trkpt>
      <trkpt lat="45.2426" lon="1.94236">
        <ele>630</ele>
        <time>2011-12-23T16:13:16.000Z</time>
      </trkpt>
      <trkpt lat="45.2431" lon="1.94257">
        <ele>631</ele>
        <time>2011-12-23T16:13:21.000Z</time>
      </trkpt>
      <trkpt lat="45.2435" lon="1.94267">
        <ele>629</ele>
        <time>2011-12-23T16:13:28.000Z</time>
      </trkpt>
      <trkpt lat="45.244" lon="1.94261">
        <ele>623</ele>
        <time>2011-12-23T16:13:36.000Z</time>
      </trkpt>
      <trkpt lat="45.2445" lon="1.94248">
        <ele>620</ele>
        <time>2011-12-23T16:13:44.000Z</time>
      </trkpt>
      <trkpt lat="45.245" lon="1.94246">
        <ele>617</ele>
        <time>2011-12-23T16:13:52.000Z</time>
      </trkpt>
      <trkpt lat="45.2454" lon="1.94254">
        <ele>617</ele>
        <time>2011-12-23T16:14:07.000Z</time>
      </trkpt>
      <trkpt lat="45.2459" lon="1.94265">
        <ele>618</ele>
        <time>2011-12-23T16:14:19.000Z</time>
      </trkpt>
      <trkpt lat="45.2464" lon="1.94281">
        <ele>622</ele>
        <time>2011-12-23T16:14:28.000Z</time>
      </trkpt>
      <trkpt lat="45.2467" lon="1.94317">
        <ele>614</ele>
        <time>2011-12-23T16:14:31.000Z</time>
      </trkpt>
      <trkpt lat="45.2473" lon="1.94365">
        <ele>620</ele>
        <time>2011-12-23T16:14:37.000Z</time>
      </trkpt>
      <trkpt lat="45.2477" lon="1.94398">
        <ele>621</ele>
        <time>2011-12-23T16:14:42.000Z</time>
      </trkpt>
      <trkpt lat="45.2482" lon="1.94422">
        <ele>622</ele>
        <time>2011-12-23T16:14:50.000Z</time>
      </trkpt>
      <trkpt lat="45.2486" lon="1.94456">
        <ele>622</ele>
        <time>2011-12-23T16:14:57.000Z</time>
      </trkpt>
      <trkpt lat="45.2489" lon="1.94501">
        <ele>619</ele>
        <time>2011-12-23T16:15:06.000Z</time>
      </trkpt>
      <trkpt lat="45.2492" lon="1.94558">
        <ele>620</ele>
        <time>2011-12-23T16:15:14.000Z</time>
      </trkpt>
      <trkpt lat="45.2494" lon="1.94618">
        <ele>625</ele>
        <time>2011-12-23T16:15:25.000Z</time>
      </trkpt>
      <trkpt lat="45.2495" lon="1.94679">
        <ele>633</ele>
        <time>2011-12-23T16:15:35.000Z</time>
      </trkpt>
      <trkpt lat="45.2498" lon="1.94737">
        <ele>636</ele>
        <time>2011-12-23T16:15:44.000Z</time>
      </trkpt>
      <trkpt lat="45.2501" lon="1.94791">
        <ele>634</ele>
        <time>2011-12-23T16:15:54.000Z</time>
      </trkpt>
      <trkpt lat="45.2505" lon="1.9483">
        <ele>642</ele>
        <time>2011-12-23T16:16:04.000Z</time>
      </trkpt>
      <trkpt lat="45.2508" lon="1.94887">
        <ele>632</ele>
        <time>2011-12-23T16:16:12.000Z</time>
      </trkpt>
      <trkpt lat="45.2512" lon="1.9493">
        <ele>629</ele>
        <time>2011-12-23T16:16:22.000Z</time>
      </trkpt>
      <trkpt lat="45.2517" lon="1.94948">
        <ele>628</ele>
        <time>2011-12-23T16:16:30.000Z</time>
      </trkpt>
      <trkpt lat="45.2521" lon="1.94987">
        <ele>633</ele>
        <time>2011-12-23T16:16:37.000Z</time>
      </trkpt>
      <trkpt lat="45.2523" lon="1.95058">
        <ele>625</ele>
        <time>2011-12-23T16:16:41.000Z</time>
      </trkpt>
      <trkpt lat="45.2528" lon="1.95109">
        <ele>623</ele>
        <time>2011-12-23T16:16:49.000Z</time>
      </trkpt>
      <trkpt lat="45.2532" lon="1.95148">
        <ele>623</ele>
        <time>2011-12-23T16:16:57.000Z</time>
      </trkpt>
      <trkpt lat="45.2536" lon="1.95192">
        <ele>623</ele>
        <time>2011-12-23T16:17:07.000Z</time>
      </trkpt>
      <trkpt lat="45.254" lon="1.95233">
        <ele>624</ele>
        <time>2011-12-23T16:17:18.000Z</time>
      </trkpt>
      <trkpt lat="45.2543" lon="1.95273">
        <ele>634</ele>
        <time>2011-12-23T16:17:27.000Z</time>
      </trkpt>
      <trkpt lat="45.2547" lon="1.95326">
        <ele>643</ele>
        <time>2011-12-23T16:17:37.000Z</time>
      </trkpt>
      <trkpt lat="45.255" lon="1.95373">
        <ele>648</ele>
        <time>2011-12-23T16:17:45.000Z</time>
      </trkpt>
      <trkpt lat="45.2555" lon="1.95417">
        <ele>657</ele>
        <time>2011-12-23T16:17:53.000Z</time>
      </trkpt>
      <trkpt lat="45.2558" lon="1.95458">
        <ele>655</ele>
        <time>2011-12-23T16:17:58.000Z</time>
      </trkpt>
      <trkpt lat="45.2561" lon="1.9552">
        <ele>648</ele>
        <time>2011-12-23T16:18:02.000Z</time>
      </trkpt>
      <trkpt lat="45.2563" lon="1.95577">
        <ele>642</ele>
        <time>2011-12-23T16:18:07.000Z</time>
      </trkpt>
      <trkpt lat="45.2567" lon="1.95617">
        <ele>634</ele>
        <time>2011-12-23T16:18:13.000Z</time>
      </trkpt>
      <trkpt lat="45.2571" lon="1.95655">
        <ele>629</ele>
        <time>2011-12-23T16:18:19.000Z</time>
      </trkpt>
      <trkpt lat="45.2576" lon="1.95681">
        <ele>630</ele>
        <time>2011-12-23T16:18:26.000Z</time>
      </trkpt>
      <trkpt lat="45.2579" lon="1.95731">
        <ele>627</ele>
        <time>2011-12-23T16:18:31.000Z</time>
      </trkpt>
      <trkpt lat="45.2584" lon="1.95748">
        <ele>627</ele>
        <time>2011-12-23T16:18:39.000Z</time>
      </trkpt>
      <trkpt lat="45.2589" lon="1.95782">
        <ele>626</ele>
        <time>2011-12-23T16:18:49.000Z</time>
      </trkpt>
      <trkpt lat="45.2593" lon="1.95814">
        <ele>625</ele>
        <time>2011-12-23T16:18:58.000Z</time>
      </trkpt>
      <trkpt lat="45.2597" lon="1.9584">
        <ele>623</ele>
        <time>2011-12-23T16:19:06.000Z</time>
      </trkpt>
      <trkpt lat="45.2601" lon="1.95873">
        <ele>634</ele>
        <time>2011-12-23T16:19:14.000Z</time>
      </trkpt>
      <trkpt lat="45.2605" lon="1.95914">
        <ele>637</ele>
        <time>2011-12-23T16:19:19.000Z</time>
      </trkpt>
      <trkpt lat="45.2609" lon="1.95956">
        <ele>630</ele>
        <time>2011-12-23T16:19:23.000Z</time>
      </trkpt>
      <trkpt lat="45.2613" lon="1.95991">
        <ele>626</ele>
        <time>2011-12-23T16:19:27.000Z</time>
      </trkpt>
      <trkpt lat="45.2617" lon="1.96035">
        <ele>619</ele>
        <time>2011-12-23T16:19:31.000Z</time>
      </trkpt>
      <trkpt lat="45.2621" lon="1.96088">
        <ele>610</ele>
        <time>2011-12-23T16:19:35.000Z</time>
      </trkpt>
      <trkpt lat="45.2624" lon="1.96153">
        <ele>607</ele>
        <time>2011-12-23T16:19:40.000Z</time>
      </trkpt>
      <trkpt lat="45.2628" lon="1.96236">
        <ele>606</ele>
        <time>2011-12-23T16:19:46.000Z</time>
      </trkpt>
      <trkpt lat="45.263" lon="1.96295">
        <ele>605</ele>
        <time>2011-12-23T16:19:50.000Z</time>
      </trkpt>
      <trkpt lat="45.2633" lon="1.96362">
        <ele>604</ele>
        <time>2011-12-23T16:19:54.000Z</time>
      </trkpt>
      <trkpt lat="45.2636" lon="1.96406">
        <ele>603</ele>
        <time>2011-12-23T16:19:58.000Z</time>
      </trkpt>
      <trkpt lat="45.2639" lon="1.96449">
        <ele>594</ele>
        <time>2011-12-23T16:20:01.000Z</time>
      </trkpt>
      <trkpt lat="45.2643" lon="1.96495">
        <ele>587</ele>
        <time>2011-12-23T16:20:05.000Z</time>
      </trkpt>
      <trkpt lat="45.2648" lon="1.965">
        <ele>586</ele>
        <time>2011-12-23T16:20:12.000Z</time>
      </trkpt>
      <trkpt lat="45.2653" lon="1.9651">
        <ele>585</ele>
        <time>2011-12-23T16:20:18.000Z</time>
      </trkpt>
      <trkpt lat="45.2658" lon="1.96515">
        <ele>584</ele>
        <time>2011-12-23T16:20:25.000Z</time>
      </trkpt>
      <trkpt lat="45.2663" lon="1.96541">
        <ele>582</ele>
        <time>2011-12-23T16:20:32.000Z</time>
      </trkpt>
      <trkpt lat="45.2667" lon="1.96578">
        <ele>576</ele>
        <time>2011-12-23T16:20:38.000Z</time>
      </trkpt>
      <trkpt lat="45.2671" lon="1.96604">
        <ele>574</ele>
        <time>2011-12-23T16:20:46.000Z</time>
      </trkpt>
      <trkpt lat="45.2675" lon="1.96637">
        <ele>576</ele>
        <time>2011-12-23T16:20:56.000Z</time>
      </trkpt>
      <trkpt lat="45.2677" lon="1.96694">
        <ele>576</ele>
        <time>2011-12-23T16:21:02.000Z</time>
      </trkpt>
      <trkpt lat="45.2681" lon="1.9674">
        <ele>580</ele>
        <time>2011-12-23T16:21:12.000Z</time>
      </trkpt>
      <trkpt lat="45.2685" lon="1.96776">
        <ele>581</ele>
        <time>2011-12-23T16:21:21.000Z</time>
      </trkpt>
      <trkpt lat="45.2688" lon="1.96834">
        <ele>573</ele>
        <time>2011-12-23T16:21:26.000Z</time>
      </trkpt>
      <trkpt lat="45.2693" lon="1.96865">
        <ele>573</ele>
        <time>2011-12-23T16:21:34.000Z</time>
      </trkpt>
      <trkpt lat="45.2697" lon="1.96877">
        <ele>576</ele>
        <time>2011-12-23T16:21:44.000Z</time>
      </trkpt>
      <trkpt lat="45.2702" lon="1.96877">
        <ele>579</ele>
        <time>2011-12-23T16:21:57.000Z</time>
      </trkpt>
      <trkpt lat="45.2707" lon="1.96877">
        <ele>583</ele>
        <time>2011-12-23T16:22:08.000Z</time>
      </trkpt>
      <trkpt lat="45.2711" lon="1.96878">
        <ele>586</ele>
        <time>2011-12-23T16:22:17.000Z</time>
      </trkpt>
      <trkpt lat="45.2717" lon="1.96881">
        <ele>586</ele>
        <time>2011-12-23T16:22:28.000Z</time>
      </trkpt>
      <trkpt lat="45.2722" lon="1.96902">
        <ele>582</ele>
        <time>2011-12-23T16:22:37.000Z</time>
      </trkpt>
      <trkpt lat="45.2725" lon="1.96942">
        <ele>582</ele>
        <time>2011-12-23T16:22:44.000Z</time>
      </trkpt>
      <trkpt lat="45.273" lon="1.96965">
        <ele>582</ele>
        <time>2011-12-23T16:22:52.000Z</time>
      </trkpt>
      <trkpt lat="45.2735" lon="1.96951">
        <ele>581</ele>
        <time>2011-12-23T16:23:01.000Z</time>
      </trkpt>
      <trkpt lat="45.274" lon="1.96936">
        <ele>579</ele>
        <time>2011-12-23T16:23:09.000Z</time>
      </trkpt>
      <trkpt lat="45.2744" lon="1.96922">
        <ele>579</ele>
        <time>2011-12-23T16:23:16.000Z</time>
      </trkpt>
      <trkpt lat="45.2749" lon="1.96904">
        <ele>580</ele>
        <time>2011-12-23T16:23:24.000Z</time>
      </trkpt>
      <trkpt lat="45.2754" lon="1.96888">
        <ele>580</ele>
        <time>2011-12-23T16:23:32.000Z</time>
      </trkpt>
      <trkpt lat="45.2759" lon="1.96873">
        <ele>579</ele>
        <time>2011-12-23T16:23:40.000Z</time>
      </trkpt>
      <trkpt lat="45.2763" lon="1.96856">
        <ele>576</ele>
        <time>2011-12-23T16:23:49.000Z</time>
      </trkpt>
      <trkpt lat="45.2768" lon="1.96838">
        <ele>576</ele>
        <time>2011-12-23T16:23:58.000Z</time>
      </trkpt>
      <trkpt lat="45.2772" lon="1.96821">
        <ele>577</ele>
        <time>2011-12-23T16:24:07.000Z</time>
      </trkpt>
      <trkpt lat="45.2777" lon="1.96804">
        <ele>578</ele>
        <time>2011-12-23T16:24:17.000Z</time>
      </trkpt>
      <trkpt lat="45.2782" lon="1.96785">
        <ele>578</ele>
        <time>2011-12-23T16:24:28.000Z</time>
      </trkpt>
      <trkpt lat="45.2785" lon="1.96831">
        <ele>586</ele>
        <time>2011-12-23T16:24:46.000Z</time>
      </trkpt>
      <trkpt lat="45.2786" lon="1.96896">
        <ele>587</ele>
        <time>2011-12-23T16:24:58.000Z</time>
      </trkpt>
      <trkpt lat="45.2788" lon="1.96971">
        <ele>591</ele>
        <time>2011-12-23T16:25:09.000Z</time>
      </trkpt>
      <trkpt lat="45.2789" lon="1.97055">
        <ele>589</ele>
        <time>2011-12-23T16:25:21.000Z</time>
      </trkpt>
      <trkpt lat="45.2794" lon="1.97064">
        <ele>593</ele>
        <time>2011-12-23T16:25:37.000Z</time>
      </trkpt>
      <trkpt lat="45.2798" lon="1.97067">
        <ele>600</ele>
        <time>2011-12-23T16:25:54.000Z</time>
      </trkpt>
      <trkpt lat="45.2803" lon="1.97054">
        <ele>603</ele>
        <time>2011-12-23T16:26:09.000Z</time>
      </trkpt>
      <trkpt lat="45.2809" lon="1.97047">
        <ele>604</ele>
        <time>2011-12-23T16:26:20.000Z</time>
      </trkpt>
      <trkpt lat="45.2813" lon="1.9704">
        <ele>606</ele>
        <time>2011-12-23T16:26:30.000Z</time>
      </trkpt>
      <trkpt lat="45.2818" lon="1.97041">
        <ele>609</ele>
        <time>2011-12-23T16:26:40.000Z</time>
      </trkpt>
      <trkpt lat="45.2823" lon="1.97045">
        <ele>610</ele>
        <time>2011-12-23T16:26:50.000Z</time>
      </trkpt>
      <trkpt lat="45.2827" lon="1.97044">
        <ele>608</ele>
        <time>2011-12-23T16:27:00.000Z</time>
      </trkpt>
    </trkseg>
  </trk>
</gpx>